Return to Metar
METAR CYNL 070900Z AUTO 26006KT 9SM CLR 13/07 A2973 RMK AO1 SLP060
METAR CYNL 070800Z AUTO 25005KT 9SM CLR 13/07 A2974 RMK AO1 SLP062
METAR CYNL 070700Z AUTO 27005KT 9SM CLR 14/07 A2974 RMK AO1 SLP063
METAR CYNL 070600Z AUTO 27005KT 9SM CLR 15/07 A2974 RMK AO1 SLP063
METAR CYNL 070500Z AUTO 26005KT 9SM CLR 15/06 A2975 RMK AO1 SLP065
METAR CYNL 070400Z AUTO 27003KT 9SM CLR 17/06 A2974 RMK AO1 SLP061
METAR CYNL 070300Z AUTO 29008KT 9SM CLR 20/05 A2973 RMK AO1 SLP059
METAR CYNL 070200Z AUTO 30011G17KT 9SM CLR 21/05 A2973 RMK AO1 SLP058
METAR CYNL 070100Z AUTO 29014G22KT 9SM SCT066 22/05 A2973 RMK AO1 SLP059
METAR CYNL 070000Z AUTO 30012G25KT 9SM FEW064 22/05 A2973 RMK AO1 WSHFT (23)57 SLP058
SPECI CYNL 062357Z AUTO 28012G25KT 9SM SCT064 22/05 A2973 RMK AO1 WSHFT (23)57 SLP057
METAR CYNL 062300Z AUTO 31012G20KT 9SM SCT062 21/06 A2972 RMK AO1 SLP057
METAR CYNL 062200Z AUTO 31011G20KT 9SM FEW062 21/05 A2972 RMK AO1 SLP054
METAR CYNL 062100Z AUTO 30012G25KT 9SM CLR 21/05 A2971 RMK AO1 SLP053
METAR CYNL 062000Z AUTO 32015G25KT 9SM FEW058 20/05 A2971 RMK AO1 SLP053
METAR CYNL 061900Z AUTO 29018G25KT 9SM FEW058 SCT170 19/05 A2971 RMK AO1 SLP054
METAR CYNL 061800Z AUTO 30015G22KT 9SM CLR 18/07 A2971 RMK AO1 SLP055
METAR CYNL 061700Z AUTO 29015G22KT 9SM FEW043 18/07 A2971 RMK AO1 SLP055
SPECI CYNL 061615Z AUTO 29012G22KT 9SM SCT029 BKN040 15/09 A2972 RMK AO1 SLP062
METAR CYNL 061600Z AUTO 30010G17KT 9SM BKN029 BKN036 15/09 A2972 RMK AO1 SLP062
SPECI CYNL 061529Z AUTO 31012G21KT 9SM FEW024 OVC031 14/09 A2972 RMK AO1 SLP062
METAR CYNL 061500Z AUTO 29011G20KT 9SM BKN027 OVC090 14/10 A2972 RMK AO1 SLP063
SPECI CYNL 061447Z AUTO 30010G20KT 9SM BKN026 BKN090 14/10 A2972 RMK AO1 SLP060
SPECI CYNL 061421Z AUTO 30011G20KT 9SM FEW014 SCT019 BKN092 13/10 A2972 RMK AO1 SLP059
SPECI CYNL 061402Z AUTO 29010G19KT 9SM SCT014 BKN019 BKN090 13/10 A2972 RMK AO1 SLP059
METAR CYNL 061400Z AUTO 30012G19KT 9SM BKN014 BKN018 13/10 A2972 RMK AO1 SLP059
SPECI CYNL 061312Z AUTO 29009G17KT 9SM FEW009 BKN012 OVC028 13/12 A2971 RMK AO1 SLP056
METAR CYNL 061300Z AUTO 29008G16KT 9SM BKN010 BKN013 OVC019 13/12 A2971 RMK AO1 SLP057
SPECI CYNL 061259Z AUTO 29008G16KT 6SM BKN010 BKN013 OVC019 13/12 A2971 RMK AO1 SLP056
SPECI CYNL 061253Z AUTO 29008G16KT 3SM BKN009 BKN013 OVC019 13/12 A2971 RMK AO1 SLP055
SPECI CYNL 061251Z AUTO 29010G17KT 2 1/2SM SCT009 BKN010 BKN012 13/12 A2971 RMK AO1 SLP055
SPECI CYNL 061250Z AUTO 29011G17KT 1 1/2SM SCT009 BKN010 BKN012 13/12 A2971 RMK AO1 SLP055
SPECI CYNL 061249Z AUTO 29010G17KT 1 1/4SM BKN010 OVC019 13/12 A2972 RMK AO1 SLP056
SPECI CYNL 061247Z AUTO 28008G17KT 1 3/4SM BKN010 OVC019 13/12 A2972 RMK AO1 SLP055
SPECI CYNL 061245Z AUTO 29007G17KT 2 1/2SM OVC010 13/12 A2972 RMK AO1 SLP055
SPECI CYNL 061238Z AUTO 29011KT 9SM OVC010 13/12 A2972 RMK AO1 SLP056
SPECI CYNL 061232Z AUTO 28008G16KT 3SM OVC009 13/12 A2972 RMK AO1 SLP055
SPECI CYNL 061231Z AUTO 28009G16KT 2 1/2SM OVC009 13/12 A2972 RMK AO1 SLP055
SPECI CYNL 061229Z AUTO 29009G16KT 2 1/2SM OVC010 13/12 A2972 RMK AO1 SLP056
SPECI CYNL 061222Z AUTO 30010G18KT 8SM OVC010 13/12 A2972 RMK AO1 SLP055
METAR CYNL 061200Z AUTO 30009G17KT 9SM OVC008 14/13 A2971 RMK AO1 SLP053
METAR CYNL 061100Z AUTO 29009KT 9SM OVC008 14/13 A2971 RMK AO1 SLP051
SPECI CYNL 061012Z AUTO 29007KT 9SM BKN009 14/13 A2970 RMK AO1 SLP049
SPECI CYNL 061004Z AUTO 29008KT 9SM FEW008 BKN010 14/13 A2970 RMK AO1 SLP048
METAR CYNL 061000Z AUTO 29009KT 9SM BKN010 BKN090 14/13 A2970 RMK AO1 SLP048
SPECI CYNL 060953Z AUTO 29007KT 9SM SCT010 BKN014 14/13 A2970 RMK AO1 SLP048
METAR CYNL 060900Z AUTO 28008KT 9SM BKN086 14/13 A2970 RMK AO1 SLP047
METAR CYNL 060800Z AUTO 30007KT 9SM FEW041 SCT054 14/13 A2970 RMK AO1 SLP049
METAR CYNL 060700Z AUTO 28004KT 9SM FEW035 14/13 A2971 RMK AO1 SLP051
METAR CYNL 060600Z AUTO 26004KT 9SM SCT052 BKN082 14/13 A2972 RMK AO1 SLP054
SPECI CYNL 060515Z AUTO 27003KT 9SM FEW009 SCT036 BKN046 14/13 A2972 RMK AO1 SLP054
SPECI CYNL 060512Z AUTO 27004KT 9SM VV023 14/13 A2972 RMK AO1 SLP054
SPECI CYNL 060511Z AUTO 27003KT 8SM VV026 14/13 A2972 RMK AO1 SLP054
METAR CYNL 060500Z AUTO 30004KT 4SM FEW036 OVC062 14/13 A2973 RMK AO1 SLP056
SPECI CYNL 060449Z AUTO 30004KT 3SM OVC058 14/13 A2973 RMK AO1 SLP058
SPECI CYNL 060447Z AUTO 31004KT 2 1/2SM OVC058 14/13 A2973 RMK AO1 SLP058
SPECI CYNL 060431Z AUTO 33005KT 3SM FEW031 SCT044 OVC058 14/12 A2973 RMK AO1 SLP059
SPECI CYNL 060426Z AUTO 33005G15KT 2 1/2SM FEW028 BKN042 OVC056 14/13 A2974 RMK AO1 SLP061
SPECI CYNL 060424Z AUTO 32005G15KT 3SM FEW031 BKN044 OVC054 14/13 A2974 RMK AO1 SLP061
SPECI CYNL 060423Z AUTO 32006G15KT 2SM FEW031 OVC045 14/13 A2974 RMK AO1 SLP061
SPECI CYNL 060415Z AUTO 31007KT 1 1/2SM VV041 14/13 A2974 RMK AO1 SLP062
SPECI CYNL 060412Z AUTO 31009KT 1 1/4SM FEW011 BKN041 OVC056 14/13 A2974 RMK AO1 SLP063
SPECI CYNL 060409Z AUTO 30009KT 1 3/4SM FEW013 SCT031 BKN044 14/14 A2975 RMK AO1 SLP064
SPECI CYNL 060406Z AUTO 30006KT 2 1/2SM FEW002 BKN035 OVC050 15/14 A2975 RMK AO1 SLP064
METAR CYNL 060400Z AUTO 26007KT 3SM FEW002 SCT026 BKN038 15/13 A2974 RMK AO1 SLP062
SPECI CYNL 060359Z AUTO 26006KT 3SM FEW002 SCT024 BKN039 15/13 A2974 RMK AO1 SLP063
SPECI CYNL 060357Z AUTO 26005KT 2SM FEW002 BKN032 OVC049 15/13 A2974 RMK AO1 SLP065
SPECI CYNL 060353Z AUTO 26005KT 1 1/2SM FEW002 SCT020 BKN032 15/13 A2974 RMK AO1 SLP064
SPECI CYNL 060350Z AUTO 27005KT 1SM FEW002 SCT020 BKN033 15/13 A2974 RMK AO1 SLP064
SPECI CYNL 060349Z AUTO 27004KT 3/4SM FEW002 SCT020 BKN029 15/13 A2974 RMK AO1 SLP064
SPECI CYNL 060348Z AUTO 28005KT 3/4SM FEW002 SCT020 OVC033 15/13 A2974 RMK AO1 SLP064
SPECI CYNL 060347Z AUTO 27005KT 3/8SM FEW002 SCT020 OVC034 15/13 A2974 RMK AO1 SLP064
SPECI CYNL 060346Z AUTO 28006KT 1/4SM FEW002 SCT020 BKN029 15/13 A2974 RMK AO1 SLP064
SPECI CYNL 060344Z AUTO 26011KT 230V300 1/2SM FEW002 SCT021 OVC034 16/13 A2974 RMK AO1 SLP065
SPECI CYNL 060343Z AUTO 25011KT 210V290 1 1/2SM FEW003 OVC034 16/12 A2974 RMK AO1 SLP063
SPECI CYNL 060341Z AUTO 25011KT 210V290 1 1/4SM FEW021 OVC034 16/12 A2974 RMK AO1 SLP062
SPECI CYNL 060340Z AUTO 25011KT 210V290 1 3/4SM FEW021 OVC034 17/12 A2974 RMK AO1 SLP061
METAR CYNL 060300Z AUTO 13002KT 9SM SCT041 BKN050 18/14 A2974 RMK AO1 SLP059
METAR CYNL 060200Z AUTO 15005KT 9SM BKN120 18/14 A2974 RMK AO1 SLP059
METAR CYNL 060100Z AUTO 16004KT 9SM BKN041 BKN120 20/14 A2973 RMK AO1 SLP059
METAR CYNL 060000Z AUTO 00000KT 9SM FEW044 21/10 A2974 RMK AO1 PRESFR SLP060
METAR CYNL 052300Z AUTO 00000KT 9SM FEW190 21/11 A2977 RMK AO1 SLP068
METAR CYNL 052200Z AUTO 30004KT 9SM CLR 21/11 A2978 RMK AO1 PRESFR SLP073
METAR CYNL 052100Z AUTO 32004KT 9SM FEW200 21/11 A2981 RMK AO1 SLP083
METAR CYNL 052000Z AUTO 29007KT 260V320 9SM FEW180 21/12 A2979 RMK AO1 PRESFR SLP077
METAR CYNL 051900Z AUTO 28005KT 250V320 9SM SCT042 21/12 A2981 RMK AO1 SLP086
METAR CYNL 051800Z AUTO 31003KT 9SM SCT038 BKN045 22/11 A2980 RMK AO1 SLP081
SPECI CYNL 051720Z AUTO 31006KT 9SM SCT028 BKN036 21/13 A2981 RMK AO1 SLP084
SPECI CYNL 051717Z AUTO 31006KT 9SM BKN028 21/14 A2981 RMK AO1 SLP085
METAR CYNL 051700Z AUTO 24007KT 9SM 21/13 A2981 RMK AO1 SLP085
METAR CYNL 051600Z AUTO 21005KT 9SM FEW080 18/13 A2983 RMK AO1 SLP093
METAR CYNL 051500Z AUTO 20005KT 170V230 9SM CLR 18/13 A2982 RMK AO1 SLP091
METAR CYNL 051400Z AUTO 21004KT 9SM SCT110 16/13 A2984 RMK AO1 SLP097
METAR CYNL 051300Z AUTO 17006KT 9SM BKN120 16/13 A2986 RMK AO1 SLP101
METAR CYNL 051200Z AUTO 21003KT 9SM FEW100 16/14 A2986 RMK AO1 SLP105
METAR CYNL 051100Z AUTO 00000KT 9SM FEW150 14/13 A2986 RMK AO1 SLP105
METAR CYNL 051000Z AUTO 27002KT 9SM FEW086 16/13 A2985 RMK AO1 PRESFR SLP096
METAR CYNL 050900Z AUTO 24006KT 9SM FEW020 SCT076 BKN092 16/13 A2987 RMK AO1 SLP102
METAR CYNL 050800Z AUTO 11003KT 9SM FEW130 14/12 A2989 RMK AO1 SLP112
METAR CYNL 050700Z AUTO 00000KT 9SM CLR 15/12 A2990 RMK AO1 SLP109
METAR CYNL 050600Z AUTO 06003KT 9SM BKN130 16/13 A2990 RMK AO1 SLP109
METAR CYNL 050500Z AUTO 09005KT 9SM SCT082 16/14 A2990 RMK AO1 SLP110
METAR CYNL 050400Z AUTO 07005KT 9SM CLR 16/13 A2991 RMK AO1 SLP113
METAR CYNL 050300Z AUTO 07005KT 9SM 19/13 A2991 RMK AO1 SLP112
METAR CYNL 050200Z AUTO 04004KT 19/14 A2992 RMK AO1 SLP115
METAR CYNL 050100Z AUTO 06009G15KT 9SM FEW078 SCT120 18/14 A2993 RMK AO1 PRESFR SLP124
SPECI CYNL 050015Z AUTO 07011KT 8SM FEW017 SCT030 BKN058 16/14 A2995 RMK AO1 PRESRR SLP135
SPECI CYNL 050011Z AUTO 06011KT 3SM VV022 16/15 A2995 RMK AO1 PRESRR SLP136
SPECI CYNL 050009Z AUTO 07011KT 2SM FEW026 SCT041 OVC060 16/15 A2996 RMK AO1 PRESRR SLP137
SPECI CYNL 050007Z AUTO 15010KT 080V220 1 3/4SM FEW026 BKN050 BKN062 16/15 A2996 RMK AO1 PRESRR SLP140
SPECI CYNL 050006Z AUTO 15009KT 080V230 2SM FEW034 BKN056 OVC076 16/15 A2997 RMK AO1 PRESRR SLP141
SPECI CYNL 050003Z AUTO 15008KT 080V230 3SM FEW035 OVC054 16/15 A2998 RMK AO1 PRESRR SLP144
SPECI CYNL 050001Z AUTO 16009KT 100V230 1 3/4SM FEW036 BKN052 OVC066 16/15 A2998 RMK AO1 PRESRR SLP145
METAR CYNL 050000Z AUTO 00000KT 1 1/4SM FEW036 BKN052 OVC066 16/15 A2998 RMK AO1 PRESRR SLP146
SPECI CYNL 042358Z AUTO 22002KT 1 1/4SM FEW036 BKN054 OVC068 16/15 A2999 RMK AO1 PRESRR SLP151
SPECI CYNL 042357Z AUTO 23003KT 1 1/2SM BKN047 OVC064 16/15 A2999 RMK AO1 SLP152
SPECI CYNL 042352Z AUTO 24009KT 210V270 1 1/4SM 17/14 A3000 RMK AO1 SLP155
SPECI CYNL 042348Z AUTO 26009KT 230V300 1 1/2SM 17/13 A3000 RMK AO1 SLP153
SPECI CYNL 042346Z AUTO 26011G21KT 230V300 1 1/4SM 17/15 A2999 RMK AO1 WSHFT (23)33 SLP152
SPECI CYNL 042340Z AUTO 30008G27KT 1 1/2SM 18/14 A2998 RMK AO1 WSHFT (23)33 SLP147
SPECI CYNL 042337Z AUTO 27011G27KT 1 1/4SM 18/13 A2998 RMK AO1 WSHFT (23)33 SLP148
SPECI CYNL 042335Z AUTO 27019G27KT 2 1/2SM 18/12 A2997 RMK AO1 WSHFT (23)33 SLP146
SPECI CYNL 042333Z AUTO 29010G22KT 250V330 8SM 17/14 A2997 RMK AO1 WSHFT (23)33 SLP144
SPECI CYNL 042312Z AUTO 30014G17KT 230V010 17/14 A2995 RMK AO1 WSHFT (23)12 SLP137
METAR CYNL 042300Z AUTO 24012KT 21/13 A2996 RMK AO1 SLP136
METAR CYNL 042200Z AUTO 35007KT 9SM FEW100 24/11 A2995 RMK AO1 SLP133
METAR CYNL 042100Z AUTO 30009G21KT 9SM BKN076 21/11 A2996 RMK AO1 SLP141
METAR CYNL 042000Z AUTO 13005KT 9SM FEW076 27/07 A2996 RMK AO1 SLP133
METAR CYNL 041900Z AUTO 11009KT 060V160 9SM FEW076 SCT170 26/07 A2997 RMK AO1 SLP138
METAR CYNL 041800Z AUTO 17007KT 9SM FEW078 26/06 A2998 RMK AO1 SLP141
METAR CYNL 041700Z AUTO 20004KT 9SM FEW068 25/07 A2999 RMK AO1 SLP142
METAR CYNL 041600Z AUTO 19006KT 9SM CLR 25/09 A2999 RMK AO1 SLP142
METAR CYNL 041500Z AUTO 00000KT 9SM CLR 24/10 A2999 RMK AO1 SLP140
METAR CYNL 041400Z AUTO 17002KT 9SM CLR 21/11 A3000 RMK AO1 SLP143
METAR CYNL 041300Z AUTO 24003KT 9SM CLR 18/11 A3000 RMK AO1 SLP145
METAR CYNL 041200Z AUTO 22002KT 9SM CLR 15/11 A3000 RMK AO1 SLP147
METAR CYNL 041100Z AUTO 21002KT 9SM CLR 13/11 A2999 RMK AO1 SLP148
METAR CYNL 041000Z AUTO 24004KT 9SM CLR 11/11 A2998 RMK AO1 SLP144
METAR CYNL 040900Z AUTO 24003KT 9SM CLR 12/11 A2997 RMK AO1 SLP141
METAR CYNL 040800Z AUTO 24002KT 9SM CLR 12/10 A2998 RMK AO1 SLP141
METAR CYNL 040700Z AUTO 24002KT 9SM CLR 12/10 A2997 RMK AO1 SLP137
METAR CYNL 040600Z AUTO 20003KT 9SM CLR 14/11 A2996 RMK AO1 SLP135
METAR CYNL 040500Z AUTO 19002KT 9SM CLR 15/11 A2996 RMK AO1 SLP133
METAR CYNL 040400Z AUTO 21003KT 9SM CLR 19/09 A2994 RMK AO1 SLP126
METAR CYNL 040300Z AUTO 23005KT 9SM CLR 22/09 A2993 RMK AO1 SLP120
METAR CYNL 040200Z AUTO 25008G16KT 9SM CLR 23/11 A2991 RMK AO1 SLP115
METAR CYNL 040100Z AUTO 22010KT 9SM FEW054 25/10 A2990 RMK AO1 SLP109
METAR CYNL 040000Z AUTO 00000KT 9SM FEW080 23/12 A2990 RMK AO1 SLP115
METAR CYNL 032300Z AUTO 20009KT 9SM FEW088 SCT120 24/09 A2990 RMK AO1 SLP112
METAR CYNL 032200Z AUTO 19007G19KT 9SM FEW120 24/10 A2989 RMK AO1 SLP110
METAR CYNL 032100Z AUTO 17007KT 9SM BKN066 24/09 A2989 RMK AO1 SLP109
METAR CYNL 032000Z AUTO 18008G17KT 9SM SCT060 25/10 A2989 RMK AO1 SLP109
METAR CYNL 031900Z AUTO 18007KT 9SM FEW044 23/12 A2989 RMK AO1 SLP110
METAR CYNL 031800Z AUTO 20007KT 9SM CLR 22/13 A2989 RMK AO1 SLP113
METAR CYNL 031700Z AUTO 17009KT 9SM FEW027 20/13 A2989 RMK AO1 SLP114
METAR CYNL 031600Z AUTO 17007KT 9SM SCT021 19/13 A2990 RMK AO1 SLP117
SPECI CYNL 031557Z AUTO 15009KT 9SM SCT021 19/13 A2990 RMK AO1 SLP116
SPECI CYNL 031546Z AUTO 16008KT 9SM BKN021 19/13 A2990 RMK AO1 SLP117
SPECI CYNL 031545Z AUTO 16009KT 9SM SCT021 BKN200 19/13 A2989 RMK AO1 SLP117
SPECI CYNL 031544Z AUTO 16009KT 9SM SCT021 BKN025 19/13 A2989 RMK AO1 SLP117
SPECI CYNL 031543Z AUTO 17008KT 9SM SCT021 BKN200 19/13 A2989 RMK AO1 SLP117
SPECI CYNL 031542Z AUTO 16008KT 9SM SCT021 BKN025 19/13 A2989 RMK AO1 SLP117
SPECI CYNL 031504Z AUTO 17009KT 9SM SCT018 17/13 A2989 RMK AO1 SLP118
METAR CYNL 031500Z AUTO 17008KT 9SM BKN018 18/13 A2989 RMK AO1 SLP117
SPECI CYNL 031418Z AUTO 13009KT 9SM SCT015 BKN020 17/13 A2989 RMK AO1 SLP116
METAR CYNL 031400Z AUTO 14010KT 9SM FEW014 16/12 A2989 RMK AO1 SLP118
SPECI CYNL 031318Z AUTO 16009KT 9SM SCT012 15/12 A2989 RMK AO1 SLP117
SPECI CYNL 031314Z AUTO 15009KT 9SM SCT011 BKN014 15/12 A2989 RMK AO1 SLP117
SPECI CYNL 031313Z AUTO 15008KT 9SM SCT011 BKN015 15/13 A2989 RMK AO1 SLP117
SPECI CYNL 031303Z AUTO 16007KT 9SM BKN011 15/13 A2989 RMK AO1 SLP117
SPECI CYNL 031302Z AUTO 15007KT 9SM SCT011 BKN015 15/13 A2989 RMK AO1 SLP117
SPECI CYNL 031301Z AUTO 15006KT 9SM BKN012 15/13 A2989 RMK AO1 SLP117
METAR CYNL 031300Z AUTO 15006KT 9SM SCT011 BKN015 15/13 A2989 RMK AO1 SLP117
SPECI CYNL 031259Z AUTO 15006KT 9SM SCT011 BKN015 15/13 A2989 RMK AO1 SLP117
SPECI CYNL 031238Z AUTO 15007KT 9SM SCT008 BKN011 OVC013 14/13 A2989 RMK AO1 SLP119
SPECI CYNL 031229Z AUTO 15005KT 9SM BKN008 OVC011 14/13 A2990 RMK AO1 SLP120
SPECI CYNL 031226Z AUTO 15007KT 9SM SCT008 OVC011 14/13 A2989 RMK AO1 SLP120
SPECI CYNL 031225Z AUTO 15008KT 9SM BKN008 OVC011 14/13 A2990 RMK AO1 SLP120
SPECI CYNL 031224Z AUTO 16008KT 9SM SCT008 BKN011 OVC013 14/13 A2990 RMK AO1 SLP120
SPECI CYNL 031220Z AUTO 15008KT 9SM BKN008 OVC011 14/13 A2990 RMK AO1 SLP120
SPECI CYNL 031219Z AUTO 14008KT 9SM SCT007 OVC010 14/13 A2990 RMK AO1 SLP120
METAR CYNL 031200Z AUTO 15007KT 9SM BKN007 OVC010 14/13 A2989 RMK AO1 SLP119
METAR CYNL 031100Z AUTO 15011G17KT 9SM BKN009 OVC012 14/13 A2989 RMK AO1 SLP118
SPECI CYNL 031021Z AUTO 13008KT 9SM BKN007 BKN012 OVC016 14/14 A2988 RMK AO1 SLP115
SPECI CYNL 031020Z AUTO 13007KT 9SM SCT007 BKN010 BKN012 14/14 A2988 RMK AO1 SLP115
METAR CYNL 031000Z AUTO 13010G17KT 9SM SCT006 BKN009 BKN011 14/14 A2988 RMK AO1 SLP114
METAR CYNL 030900Z AUTO 13008G17KT 9SM OVC005 14/14 A2987 RMK AO1 SLP112
SPECI CYNL 030857Z AUTO 13010G17KT 9SM OVC005 14/14 A2987 RMK AO1 SLP112
METAR CYNL 030800Z AUTO 11006KT 9SM OVC003 13/13 A2987 RMK AO1 SLP114
SPECI CYNL 030754Z AUTO 11008KT 9SM OVC003 13/13 A2988 RMK AO1 SLP115
SPECI CYNL 030730Z AUTO 11009G16KT 9SM OVC002 13/13 A2988 RMK AO1 SLP116
METAR CYNL 030700Z AUTO 10013G19KT 9SM OVC003 13/13 A2988 RMK AO1 SLP115
SPECI CYNL 030626Z AUTO 09006KT 9SM OVC003 13/13 A2987 RMK AO1 SLP115
METAR CYNL 030600Z AUTO 09010G17KT 9SM OVC002 13/13 A2987 RMK AO1 SLP115
SPECI CYNL 030556Z AUTO 10009G19KT 3SM OVC002 13/13 A2988 RMK AO1 PRESFR SLP116
SPECI CYNL 030554Z AUTO 10012G19KT 2 1/2SM OVC002 13/13 A2988 RMK AO1 PRESFR SLP117
SPECI CYNL 030552Z AUTO 09013G19KT 1 3/4SM OVC002 13/13 A2988 RMK AO1 PRESFR SLP118
SPECI CYNL 030550Z AUTO 09012G19KT 2 1/2SM OVC002 13/13 A2988 RMK AO1 PRESFR SLP118
SPECI CYNL 030540Z AUTO 09011G18KT 9SM OVC002 13/13 A2988 RMK AO1 PRESFR SLP119
SPECI CYNL 030501Z AUTO 09010KT 9SM BKN004 BKN120 13/13 A2987 RMK AO1 PRESFR SLP115
METAR CYNL 030500Z AUTO 09009KT 9SM SCT004 BKN044 BKN120 13/13 A2987 RMK AO1 PRESFR SLP115
SPECI CYNL 030453Z AUTO 10009KT 9SM SCT004 BKN045 BKN070 13/13 A2987 RMK AO1 SLP114
SPECI CYNL 030448Z AUTO 08007KT 9SM BKN004 BKN066 OVC080 13/13 A2985 RMK AO1 SLP110
SPECI CYNL 030445Z AUTO 05008KT 9SM BKN005 BKN066 OVC080 14/14 A2985 RMK AO1 SLP110
SPECI CYNL 030434Z AUTO 10007KT 3SM SCT006 BKN041 BKN066 14/14 A2988 RMK AO1 SLP119
METAR CYNL 030400Z AUTO 10013G19KT 8SM OVC005 14/14 A2993 RMK AO1 SLP135
METAR CYNL 030300Z AUTO 09013G19KT 9SM OVC006 14/14 A2993 RMK AO1 PRESRR SLP137
METAR CYNL 030200Z AUTO 09012G17KT 9SM OVC007 15/14 A2990 RMK AO1 PRESFR SLP124
METAR CYNL 030100Z AUTO 09010G18KT 9SM OVC009 15/14 A2993 RMK AO1 SLP136
SPECI CYNL 030042Z AUTO 08012KT 9SM OVC009 16/13 A2994 RMK AO1 SLP138
METAR CYNL 030000Z AUTO 09012G18KT 9SM OVC011 16/13 A2995 RMK AO1 SLP141
SPECI CYNL 022318Z AUTO 11009KT 9SM OVC010 16/13 A2995 RMK AO1 SLP143
METAR CYNL 022300Z AUTO 10010G15KT 9SM OVC009 16/13 A2996 RMK AO1 SLP145
METAR CYNL 022200Z AUTO 11013KT 9SM OVC009 16/13 A2996 RMK AO1 SLP146
METAR CYNL 022100Z AUTO 09011KT 9SM OVC008 15/13 A2997 RMK AO1 SLP148
METAR CYNL 022000Z AUTO 09010G16KT 9SM OVC008 15/13 A2999 RMK AO1 SLP155
METAR CYNL 021900Z AUTO 11010KT 9SM OVC007 15/13 A2998 RMK AO1 SLP153
SPECI CYNL 021808Z AUTO 08011G16KT 9SM OVC005 14/13 A2997 RMK AO1 SLP149
METAR CYNL 021800Z AUTO 09011KT 9SM OVC004 13/13 A2997 RMK AO1 SLP150
METAR CYNL 021700Z AUTO 10011KT 9SM OVC003 13/12 A2998 RMK AO1 SLP154
SPECI CYNL 021629Z AUTO 10010KT 9SM OVC003 12/12 A2998 RMK AO1 SLP155
SPECI CYNL 021615Z AUTO 09010KT 3SM OVC002 12/12 A2998 RMK AO1 SLP155
SPECI CYNL 021613Z AUTO 10011KT 2 1/2SM OVC002 12/12 A2998 RMK AO1 SLP155
SPECI CYNL 021612Z AUTO 10010KT 1 3/4SM OVC002 12/12 A2998 RMK AO1 SLP155
SPECI CYNL 021607Z AUTO 09011KT 1SM OVC002 12/12 A2998 RMK AO1 SLP154
SPECI CYNL 021605Z AUTO 09011KT 3/4SM OVC002 12/12 A2998 RMK AO1 SLP154
SPECI CYNL 021602Z AUTO 09008KT 1 1/4SM OVC002 12/12 A2998 RMK AO1 SLP155
SPECI CYNL 021601Z AUTO 10008KT 1 1/2SM OVC002 12/12 A2998 RMK AO1 SLP155
METAR CYNL 021600Z AUTO 10008G16KT 1 1/4SM OVC002 12/12 A2998 RMK AO1 SLP155
SPECI CYNL 021559Z AUTO 09008G16KT 3/4SM OVC002 12/12 A2998 RMK AO1 SLP154
SPECI CYNL 021553Z AUTO 09007G16KT 5/8SM OVC002 12/12 A2998 RMK AO1 SLP153
SPECI CYNL 021551Z AUTO 11012KT 1 1/4SM OVC002 12/12 A2998 RMK AO1 SLP153
SPECI CYNL 021547Z AUTO 10010KT 2 1/2SM OVC002 11/11 A2998 RMK AO1 SLP154
SPECI CYNL 021543Z AUTO 11009KT 3SM OVC002 11/11 A2998 RMK AO1 SLP154
SPECI CYNL 021542Z AUTO 10009KT 2 1/2SM OVC002 11/11 A2998 RMK AO1 SLP154
SPECI CYNL 021540Z AUTO 11010KT 4SM OVC002 11/11 A2998 RMK AO1 SLP154
SPECI CYNL 021539Z AUTO 11009KT 2SM OVC002 11/11 A2998 RMK AO1 SLP155
SPECI CYNL 021538Z AUTO 11008KT 3/4SM OVC002 11/11 A2998 RMK AO1 SLP155
SPECI CYNL 021525Z AUTO 09009KT 5/8SM OVC002 11/11 A2998 RMK AO1 SLP154
SPECI CYNL 021524Z AUTO 09009KT 3/4SM OVC002 11/11 A2998 RMK AO1 SLP154
SPECI CYNL 021523Z AUTO 09008KT 1SM OVC002 11/11 A2998 RMK AO1 SLP154
SPECI CYNL 021522Z AUTO 10009KT 2SM OVC002 11/11 A2998 RMK AO1 SLP154
SPECI CYNL 021521Z AUTO 10010KT 3SM OVC002 11/11 A2998 RMK AO1 SLP153
SPECI CYNL 021512Z AUTO 10010KT 2SM OVC002 11/11 A2997 RMK AO1 SLP153
SPECI CYNL 021502Z AUTO 10009G15KT 3SM OVC002 11/11 A2997 RMK AO1 SLP153
METAR CYNL 021500Z AUTO 10012KT 2 1/2SM OVC002 11/11 A2997 RMK AO1 SLP153
SPECI CYNL 021458Z AUTO 09010KT 2SM OVC002 11/11 A2997 RMK AO1 SLP152
SPECI CYNL 021456Z AUTO 11008KT 1 1/2SM OVC002 11/11 A2997 RMK AO1 SLP153
SPECI CYNL 021450Z AUTO 10010KT 1SM OVC002 11/11 A2997 RMK AO1 SLP152
SPECI CYNL 021449Z AUTO 11009KT 3/4SM OVC002 11/11 A2997 RMK AO1 SLP152
SPECI CYNL 021434Z AUTO 10011KT 1SM OVC002 11/11 A2997 RMK AO1 SLP152
SPECI CYNL 021432Z AUTO 10011KT 3/4SM OVC002 11/11 A2997 RMK AO1 SLP152
SPECI CYNL 021430Z AUTO 10007KT 1 1/4SM OVC002 11/11 A2997 RMK AO1 SLP151
SPECI CYNL 021424Z AUTO 10010KT 1 1/2SM OVC002 11/11 A2997 RMK AO1 SLP152
SPECI CYNL 021422Z AUTO 09009KT 1SM OVC002 11/11 A2997 RMK AO1 SLP152
SPECI CYNL 021421Z AUTO 10009KT 3/4SM OVC002 11/11 A2997 RMK AO1 SLP152
METAR CYNL 021400Z AUTO 11005KT 3/8SM OVC002 11/11 A2997 RMK AO1 SLP151
SPECI CYNL 021340Z AUTO 11006KT 1/4SM OVC002 11/11 A2998 RMK AO1 SLP154
SPECI CYNL 021328Z AUTO 10011KT 1/8SM OVC002 11/11 A2997 RMK AO1 SLP152
SPECI CYNL 021322Z AUTO 11009G15KT 1/4SM OVC002 11/11 A2997 RMK AO1 SLP153
SPECI CYNL 021319Z AUTO 10011KT 1/8SM OVC002 11/11 A2997 RMK AO1 SLP152
METAR CYNL 021300Z AUTO 10008KT 3/8SM OVC002 11/11 A2996 RMK AO1 SLP148
SPECI CYNL 021225Z AUTO 10009KT 5/8SM OVC002 11/11 A2996 RMK AO1 SLP147
SPECI CYNL 021223Z AUTO 09008G15KT 3/4SM OVC002 11/11 A2996 RMK AO1 SLP147
SPECI CYNL 021221Z AUTO 10010G15KT 5/8SM OVC002 11/11 A2996 RMK AO1 SLP147
SPECI CYNL 021219Z AUTO 10009G15KT 3/4SM OVC002 11/11 A2996 RMK AO1 SLP147
SPECI CYNL 021213Z AUTO 10010G15KT 5/8SM OVC002 11/11 A2995 RMK AO1 SLP145
SPECI CYNL 021212Z AUTO 10007KT 3/4SM OVC002 11/11 A2995 RMK AO1 SLP145
SPECI CYNL 021202Z AUTO 10009KT 5/8SM OVC002 11/11 A2995 RMK AO1 SLP145
METAR CYNL 021200Z AUTO 09010KT 3/4SM OVC002 11/11 A2995 RMK AO1 SLP145
SPECI CYNL 021157Z AUTO 09007G16KT 3/4SM OVC002 11/11 A2996 RMK AO1 SLP145
SPECI CYNL 021154Z AUTO 10008G16KT 5/8SM OVC002 11/11 A2996 RMK AO1 SLP146
SPECI CYNL 021147Z AUTO 10011KT 3/4SM OVC002 11/11 A2996 RMK AO1 SLP146
SPECI CYNL 021142Z AUTO 10009KT 1 1/4SM OVC002 11/11 A2996 RMK AO1 SLP146
SPECI CYNL 021137Z AUTO 11009KT 1 3/4SM OVC002 11/11 A2996 RMK AO1 SLP147
SPECI CYNL 021131Z AUTO 10009KT 2SM OVC002 11/11 A2996 RMK AO1 SLP146
SPECI CYNL 021128Z AUTO 10009KT 1 1/2SM OVC002 11/11 A2996 RMK AO1 SLP146
SPECI CYNL 021124Z AUTO 10011KT 1SM OVC002 11/11 A2996 RMK AO1 SLP147
SPECI CYNL 021121Z AUTO 10009G15KT 3/4SM OVC002 11/11 A2996 RMK AO1 SLP148
SPECI CYNL 021117Z AUTO 10011KT 5/8SM OVC002 11/11 A2996 RMK AO1 SLP148
SPECI CYNL 021114Z AUTO 10011KT 3/4SM OVC002 11/11 A2996 RMK AO1 SLP148
SPECI CYNL 021113Z AUTO 10009KT 1SM OVC002 11/11 A2996 RMK AO1 SLP148
SPECI CYNL 021111Z AUTO 11009KT 3/4SM OVC002 11/11 A2996 RMK AO1 SLP148
SPECI CYNL 021104Z AUTO 10009KT 1 1/4SM OVC002 11/11 A2996 RMK AO1 SLP147
METAR CYNL 021100Z AUTO 09008KT 1 3/4SM OVC002 11/11 A2996 RMK AO1 SLP146
SPECI CYNL 021059Z AUTO 10010KT 1 3/4SM OVC002 11/11 A2996 RMK AO1 SLP145
SPECI CYNL 021046Z AUTO 09011KT 2 1/2SM OVC002 11/11 A2996 RMK AO1 SLP143
SPECI CYNL 021038Z AUTO 10008KT 3SM OVC002 11/11 A2995 RMK AO1 SLP142
SPECI CYNL 021030Z AUTO 10010KT 2SM OVC002 11/11 A2995 RMK AO1 SLP142
SPECI CYNL 021022Z AUTO 10009KT 1 1/2SM OVC002 11/11 A2995 RMK AO1 SLP142
SPECI CYNL 021013Z AUTO 10010KT 1 1/4SM OVC002 11/11 A2995 RMK AO1 SLP140
SPECI CYNL 021008Z AUTO 09009KT 1 3/4SM OVC002 11/11 A2995 RMK AO1 SLP140
SPECI CYNL 021004Z AUTO 09011G17KT 2SM OVC002 11/11 A2995 RMK AO1 SLP141
SPECI CYNL 021003Z AUTO 10011G17KT 2 1/2SM OVC003 11/11 A2995 RMK AO1 SLP141
METAR CYNL 021000Z AUTO 10010G17KT 3SM OVC003 11/11 A2995 RMK AO1 SLP142
SPECI CYNL 020952Z AUTO 10010KT 3SM OVC003 11/11 A2995 RMK AO1 SLP141
SPECI CYNL 020951Z AUTO 11011KT 2 1/2SM OVC003 11/11 A2995 RMK AO1 SLP141
SPECI CYNL 020928Z AUTO 10009KT 3SM OVC003 11/11 A2994 RMK AO1 SLP136
SPECI CYNL 020924Z AUTO 10008KT 2 1/2SM OVC003 11/11 A2994 RMK AO1 SLP137
SPECI CYNL 020913Z AUTO 11010KT 3SM OVC003 11/11 A2995 RMK AO1 SLP139
SPECI CYNL 020910Z AUTO 11009KT 2 1/2SM OVC003 11/11 A2994 RMK AO1 SLP138
METAR CYNL 020900Z AUTO 10009KT 9SM OVC003 11/11 A2993 RMK AO1 SLP135
METAR CYNL 020800Z AUTO 11012G18KT 9SM OVC004 11/11 A2993 RMK AO1 SLP134
SPECI CYNL 020741Z AUTO 11010KT 9SM OVC004 12/12 A2993 RMK AO1 SLP134
SPECI CYNL 020736Z AUTO 11008G17KT 9SM OVC005 12/12 A2993 RMK AO1 SLP133
METAR CYNL 020700Z AUTO 11011KT 5SM OVC004 12/12 A2993 RMK AO1 SLP134
SPECI CYNL 020651Z AUTO 10012KT 3SM OVC004 12/12 A2994 RMK AO1 SLP134
SPECI CYNL 020639Z AUTO 10012G17KT 2SM OVC003 12/12 A2994 RMK AO1 SLP135
SPECI CYNL 020632Z AUTO 10012G17KT 1 1/2SM BKN003 OVC005 12/12 A2994 RMK AO1 SLP135
SPECI CYNL 020629Z AUTO 10011G17KT 1 1/4SM OVC003 12/12 A2994 RMK AO1 SLP135
SPECI CYNL 020627Z AUTO 10012KT 1 1/2SM BKN004 OVC006 12/12 A2994 RMK AO1 SLP135
SPECI CYNL 020608Z AUTO 10011G19KT 1SM OVC004 12/12 A2994 RMK AO1 SLP135
SPECI CYNL 020607Z AUTO 10012G19KT 1SM BKN005 OVC010 12/12 A2994 RMK AO1 SLP135
SPECI CYNL 020601Z AUTO 10012G18KT 1SM BKN004 BKN006 OVC010 12/12 A2994 RMK AO1 SLP135
METAR CYNL 020600Z AUTO 11013G18KT 1SM BKN005 OVC007 12/12 A2994 RMK AO1 SLP135
SPECI CYNL 020548Z AUTO 10013G18KT 1 1/4SM OVC005 12/12 A2994 RMK AO1 SLP136
SPECI CYNL 020542Z AUTO 10013G18KT 1 3/4SM OVC005 12/12 A2994 RMK AO1 SLP136
SPECI CYNL 020541Z AUTO 10013G18KT 2SM BKN005 OVC007 12/12 A2994 RMK AO1 SLP136
SPECI CYNL 020534Z AUTO 11012G18KT 9SM OVC005 12/12 A2994 RMK AO1 SLP136
METAR CYNL 020500Z AUTO 10012G18KT 3SM OVC004 12/12 A2994 RMK AO1 SLP134
SPECI CYNL 020457Z AUTO 10010G18KT 3SM OVC004 12/12 A2994 RMK AO1 SLP135
SPECI CYNL 020452Z AUTO 10013G19KT 2 1/2SM OVC004 12/12 A2994 RMK AO1 SLP135
SPECI CYNL 020431Z AUTO 10014G21KT 3SM OVC004 12/12 A2993 RMK AO1 SLP134
SPECI CYNL 020427Z AUTO 10012G19KT 2SM OVC004 12/12 A2993 RMK AO1 SLP133
SPECI CYNL 020426Z AUTO 10013G19KT 1 1/2SM OVC004 12/12 A2993 RMK AO1 SLP133
SPECI CYNL 020423Z AUTO 10014G19KT 1 1/4SM OVC004 12/12 A2993 RMK AO1 SLP133
SPECI CYNL 020419Z AUTO 09014KT 1 1/2SM OVC004 12/12 A2993 RMK AO1 SLP132
SPECI CYNL 020417Z AUTO 09015KT 1 3/4SM OVC005 12/12 A2993 RMK AO1 SLP132
SPECI CYNL 020413Z AUTO 09014G20KT 2 1/2SM OVC005 12/12 A2992 RMK AO1 SLP131
METAR CYNL 020400Z AUTO 09012G21KT 5SM OVC005 13/12 A2993 RMK AO1 SLP132
SPECI CYNL 020338Z AUTO 09016G24KT 3SM OVC006 13/13 A2993 RMK AO1 SLP134
SPECI CYNL 020336Z AUTO 09014G24KT 2 1/2SM OVC006 13/13 A2993 RMK AO1 SLP135
SPECI CYNL 020306Z AUTO 10014G25KT 3SM BKN005 BKN008 OVC011 13/13 A2993 RMK AO1 SLP135
METAR CYNL 020300Z AUTO 10013G25KT 2 1/2SM BKN005 BKN009 OVC012 13/13 A2993 RMK AO1 SLP136
SPECI CYNL 020259Z AUTO 09014G25KT 1 3/4SM BKN005 BKN009 OVC012 13/13 A2993 RMK AO1 SLP136
SPECI CYNL 020256Z AUTO 11016G25KT 1 1/4SM BKN005 BKN008 OVC012 13/13 A2993 RMK AO1 SLP137
SPECI CYNL 020240Z AUTO 10013G20KT 1 1/2SM BKN006 BKN008 OVC018 13/13 A2993 RMK AO1 SLP136
SPECI CYNL 020239Z AUTO 11014G20KT 1 1/4SM BKN006 BKN008 OVC018 13/13 A2993 RMK AO1 SLP136
SPECI CYNL 020238Z AUTO 10014KT 1 1/2SM BKN006 BKN008 OVC018 13/13 A2993 RMK AO1 SLP136
SPECI CYNL 020235Z AUTO 10015G22KT 1SM BKN005 BKN008 OVC017 13/13 A2993 RMK AO1 SLP136
SPECI CYNL 020234Z AUTO 10014G22KT 3/4SM BKN005 BKN008 OVC017 13/13 A2993 RMK AO1 SLP136
SPECI CYNL 020230Z AUTO 10011G22KT 1SM BKN006 OVC012 13/13 A2993 RMK AO1 SLP136
SPECI CYNL 020229Z AUTO 11010G22KT 3/4SM BKN005 BKN008 OVC012 13/13 A2993 RMK AO1 SLP136
SPECI CYNL 020226Z AUTO 11011G22KT 1 1/4SM BKN005 BKN007 OVC017 13/13 A2993 RMK AO1 SLP136
SPECI CYNL 020222Z AUTO 11011G22KT 1 1/2SM BKN006 OVC026 13/13 A2993 RMK AO1 SLP137
SPECI CYNL 020219Z AUTO 11013G22KT 1SM BKN006 BKN009 OVC026 13/13 A2993 RMK AO1 SLP136
SPECI CYNL 020213Z AUTO 11011G19KT 1 3/4SM BKN006 BKN009 OVC021 13/13 A2993 RMK AO1 SLP136
SPECI CYNL 020209Z AUTO 10012G20KT 2 1/2SM SCT005 BKN008 BKN020 13/13 A2993 RMK AO1 SLP135
SPECI CYNL 020207Z AUTO 10013G20KT 3SM SCT005 BKN008 BKN020 13/13 A2993 RMK AO1 SLP135
SPECI CYNL 020204Z AUTO 10014G20KT 2 1/2SM FEW005 BKN008 BKN020 13/13 A2993 RMK AO1 SLP136
METAR CYNL 020200Z AUTO 10014G22KT 4SM SCT007 BKN015 BKN019 13/13 A2993 RMK AO1 SLP136
SPECI CYNL 020151Z AUTO 10014G21KT 4SM FEW008 BKN017 OVC021 13/13 A2993 RMK AO1 SLP136
SPECI CYNL 020149Z AUTO 10011G20KT 2SM FEW009 BKN017 OVC022 13/13 A2993 RMK AO1 SLP136
SPECI CYNL 020146Z AUTO 10013G20KT 1 3/4SM FEW009 BKN017 OVC023 13/13 A2993 RMK AO1 SLP136
SPECI CYNL 020145Z AUTO 11013G20KT 2SM FEW010 BKN017 OVC023 13/13 A2993 RMK AO1 SLP136
SPECI CYNL 020144Z AUTO 10013G20KT 1 1/2SM FEW010 BKN017 OVC023 13/13 A2993 RMK AO1 SLP136
SPECI CYNL 020140Z AUTO 11013G21KT 1 1/4SM SCT017 OVC024 14/13 A2993 RMK AO1 SLP136
SPECI CYNL 020139Z AUTO 10013G21KT 2SM BKN018 OVC025 14/12 A2993 RMK AO1 SLP135
SPECI CYNL 020131Z AUTO 11013G19KT 6SM FEW012 BKN024 OVC030 14/12 A2993 RMK AO1 SLP135
METAR CYNL 020100Z AUTO 10009KT 9SM OVC027 14/12 A2992 RMK AO1 SLP131
SPECI CYNL 020019Z AUTO 09011KT 3SM OVC028 14/12 A2990 RMK AO1 SLP125
SPECI CYNL 020018Z AUTO 09011G16KT 1 3/4SM OVC028 14/12 A2990 RMK AO1 SLP125
SPECI CYNL 020017Z AUTO 09011KT 2SM OVC028 14/12 A2990 RMK AO1 SLP125
SPECI CYNL 020002Z AUTO 08010G20KT 6SM FEW003 OVC029 14/12 A2990 RMK AO1 SLP125
METAR CYNL 020000Z AUTO 08012G20KT 9SM FEW003 OVC030 14/11 A2990 RMK AO1 SLP125
SPECI CYNL 012356Z AUTO 09014G20KT 4SM FEW003 OVC030 14/11 A2990 RMK AO1 SLP125
SPECI CYNL 012355Z AUTO 08013G20KT 2 1/2SM FEW003 OVC030 14/12 A2990 RMK AO1 SLP125
SPECI CYNL 012353Z AUTO 09013G19KT 1 3/4SM FEW003 OVC030 14/11 A2990 RMK AO1 SLP124
SPECI CYNL 012350Z AUTO 08010G22KT 2 1/2SM FEW003 OVC030 14/12 A2990 RMK AO1 SLP124
SPECI CYNL 012348Z AUTO 08012G22KT 1 1/2SM FEW003 OVC030 15/12 A2990 RMK AO1 SLP123
SPECI CYNL 012346Z AUTO 08012G22KT 1 1/4SM FEW003 OVC030 15/12 A2990 RMK AO1 SLP123
SPECI CYNL 012345Z AUTO 08013G22KT 1 3/4SM FEW003 OVC031 15/12 A2989 RMK AO1 SLP122
SPECI CYNL 012343Z AUTO 09013G22KT 1 1/2SM OVC031 15/11 A2990 RMK AO1 SLP122
SPECI CYNL 012342Z AUTO 08015G23KT 1 1/4SM OVC031 15/12 A2990 RMK AO1 SLP122
SPECI CYNL 012340Z AUTO 08017G23KT 1 1/2SM OVC031 15/11 A2989 RMK AO1 SLP122
SPECI CYNL 012339Z AUTO 08015G23KT 2SM OVC031 16/11 A2989 RMK AO1 SLP121
METAR CYNL 012300Z AUTO 08014G24KT 9SM OVC034 16/10 A2990 RMK AO1 SLP123
METAR CYNL 012200Z AUTO 08023G29KT 9SM FEW210 17/09 A2989 RMK AO1 PRESFR SLP122
METAR CYNL 012100Z AUTO 08019G25KT 9SM FEW160 17/10 A2992 RMK AO1 SLP129
METAR CYNL 012000Z AUTO 08017G27KT 9SM FEW210 18/11 A2992 RMK AO1 SLP127
METAR CYNL 011900Z AUTO 09022G32KT 9SM CLR 18/10 A2991 RMK AO1 PRESFR SLP126
METAR CYNL 011800Z AUTO 08022G28KT 9SM FEW020 17/11 A2994 RMK AO1 PRESFR SLP136
SPECI CYNL 011729Z AUTO 08018G25KT 9SM SCT020 BKN086 17/11 A2995 RMK AO1 SLP139
SPECI CYNL 011727Z AUTO 07017G25KT 9SM BKN020 17/11 A2995 RMK AO1 SLP139
SPECI CYNL 011723Z AUTO 09017G25KT 9SM SCT020 17/11 A2996 RMK AO1 SLP140
SPECI CYNL 011722Z AUTO 08018G25KT 9SM BKN020 17/11 A2995 RMK AO1 SLP140
SPECI CYNL 011721Z AUTO 07019G25KT 9SM SCT019 BKN086 17/11 A2995 RMK AO1 SLP140
METAR CYNL 011700Z AUTO 08016G28KT 9SM OVC019 16/11 A2997 RMK AO1 SLP145
SPECI CYNL 011614Z AUTO 08017G25KT 9SM OVC015 15/10 A2997 RMK AO1 SLP148
METAR CYNL 011600Z AUTO 09017KT 9SM OVC013 14/10 A2998 RMK AO1 SLP150
METAR CYNL 011500Z AUTO 07018G24KT 9SM OVC010 13/11 A2997 RMK AO1 SLP146
SPECI CYNL 011443Z AUTO 08016G24KT 9SM OVC010 13/11 A2997 RMK AO1 SLP148
METAR CYNL 011400Z AUTO 08015G21KT 9SM OVC008 13/11 A2997 RMK AO1 SLP148
METAR CYNL 011300Z AUTO 08015G21KT 9SM OVC006 12/11 A2999 RMK AO1 SLP154
METAR CYNL 011200Z AUTO 08015G22KT 9SM OVC006 12/11 A2999 RMK AO1 SLP153
METAR CYNL 011100Z AUTO 08014G21KT 9SM OVC006 12/11 A2999 RMK AO1 SLP154
METAR CYNL 011000Z AUTO 08012G19KT 9SM OVC007 12/11 A3000 RMK AO1 PRESFR SLP158
METAR CYNL 010900Z AUTO 08010G16KT 9SM OVC008 12/12 A3002 RMK AO1 SLP164
SPECI CYNL 010811Z AUTO 08011KT 9SM BKN009 OVC012 13/12 A3003 RMK AO1 SLP165
SPECI CYNL 010809Z AUTO 09009KT 9SM SCT009 OVC013 13/12 A3003 RMK AO1 SLP166
METAR CYNL 010800Z AUTO 08009KT 9SM OVC012 13/12 A3003 RMK AO1 SLP166
SPECI CYNL 010733Z AUTO 08012KT 9SM OVC014 13/11 A3003 RMK AO1 SLP165
METAR CYNL 010700Z AUTO 08012G19KT 9SM OVC017 13/11 A3002 RMK AO1 SLP164
METAR CYNL 010600Z AUTO 08011G17KT 9SM OVC021 14/10 A3003 RMK AO1 SLP165
SPECI CYNL 010501Z AUTO 07009G15KT 3SM OVC024 14/10 A3004 RMK AO1 SLP166
METAR CYNL 010500Z AUTO 07011KT 2 1/2SM OVC024 14/10 A3004 RMK AO1 SLP166
SPECI CYNL 010459Z AUTO 08011KT 2 1/2SM OVC024 14/10 A3004 RMK AO1 SLP166
METAR CYNL 010400Z AUTO 07009KT 9SM OVC023 14/10 A3004 RMK AO1 SLP166
METAR CYNL 010300Z AUTO 08009KT 9SM OVC023 15/10 A3005 RMK AO1 SLP170
METAR CYNL 010200Z AUTO 08011G20KT 9SM OVC023 15/10 A3005 RMK AO1 SLP170
METAR CYNL 010100Z AUTO 09008KT 9SM OVC023 15/10 A3006 RMK AO1 SLP174
SPECI CYNL 010047Z AUTO 09009KT 9SM OVC024 16/10 A3006 RMK AO1 SLP175
METAR CYNL 010000Z AUTO 09012G19KT 9SM OVC025 16/10 A3005 RMK AO1 SLP173
SPECI CYNL 302305Z AUTO 10011G17KT 9SM BKN025 OVC032 16/10 A3005 RMK AO1 SLP175
METAR CYNL 302300Z AUTO 09011G17KT 9SM BKN024 OVC032 17/10 A3005 RMK AO1 SLP175
SPECI CYNL 302223Z AUTO 09009G17KT 9SM OVC024 17/10 A3005 RMK AO1 SLP175
METAR CYNL 302200Z AUTO 09013KT 7SM OVC027 17/10 A3005 RMK AO1 SLP175
METAR CYNL 302100Z AUTO 09013G18KT 9SM OVC027 17/09 A3006 RMK AO1 SLP177
METAR CYNL 302000Z AUTO 09014G19KT 9SM OVC029 18/10 A3005 RMK AO1 SLP173
SPECI CYNL 301955Z AUTO 09014G20KT 9SM OVC029 18/10 A3005 RMK AO1 SLP171
METAR CYNL 301900Z AUTO 07014G19KT 9SM BKN032 OVC045 17/09 A3005 RMK AO1 SLP173
METAR CYNL 301800Z AUTO 07015G22KT 9SM SCT032 BKN046 BKN180 18/09 A3004 RMK AO1 SLP169
METAR CYNL 301700Z AUTO 05013KT 9SM FEW030 OVC043 18/09 A3004 RMK AO1 SLP169
METAR CYNL 301600Z AUTO 07011G18KT 9SM SCT030 17/09 A3005 RMK AO1 SLP172
SPECI CYNL 301535Z AUTO 07011G17KT 9SM SCT029 17/09 A3006 RMK AO1 SLP171
SPECI CYNL 301520Z AUTO 07009G17KT 9SM BKN029 17/09 A3005 RMK AO1 SLP171
METAR CYNL 301500Z AUTO 08008KT 4SM FEW026 17/10 A3005 RMK AO1 SLP170
METAR CYNL 301400Z AUTO 09010KT 9SM CLR 16/10 A3005 RMK AO1 SLP167
METAR CYNL 301300Z AUTO 06007KT 9SM CLR 15/10 A3004 RMK AO1 SLP165
METAR CYNL 301200Z AUTO 07005KT 9SM CLR 13/09 A3004 RMK AO1 SLP166
METAR CYNL 301100Z AUTO 06004KT 9SM CLR 11/09 A3003 RMK AO1 SLP166
METAR CYNL 301000Z AUTO 07004KT 9SM CLR 10/08 A3003 RMK AO1 SLP164
METAR CYNL 300900Z AUTO 00000KT 9SM BKN220 11/08 A3002 RMK AO1 SLP161
METAR CYNL 300800Z AUTO 09004KT 9SM BKN078 13/08 A3002 RMK AO1 SLP160
METAR CYNL 300700Z AUTO 08004KT 9SM CLR 13/07 A3001 RMK AO1 SLP157
METAR CYNL 300600Z AUTO 07005KT 9SM CLR 14/07 A3001 RMK AO1 SLP155
METAR CYNL 300500Z AUTO 06004KT 9SM CLR 14/07 A2999 RMK AO1 SLP150
METAR CYNL 300400Z AUTO 06004KT 9SM CLR 16/07 A2999 RMK AO1 SLP148
METAR CYNL 300300Z AUTO 10004KT 9SM FEW082 19/07 A2999 RMK AO1 SLP147
METAR CYNL 300200Z AUTO 08007KT 9SM CLR 19/07 A2998 RMK AO1 SLP142
METAR CYNL 300100Z AUTO 07008KT 9SM CLR 20/07 A2998 RMK AO1 SLP144
METAR CYNL 300000Z AUTO 07008KT 9SM CLR 20/06 A2998 RMK AO1 SLP142
METAR CYNL 292300Z AUTO 07008KT 9SM CLR 21/05 A2998 RMK AO1 SLP146
METAR CYNL 292200Z AUTO 09008KT 9SM SCT074 20/04 A2998 RMK AO1 SLP148
METAR CYNL 292100Z AUTO 08012G18KT 9SM FEW058 21/04 A2998 RMK AO1 SLP148
METAR CYNL 292000Z AUTO 06005KT 9SM SCT054 20/06 A2998 RMK AO1 SLP149
METAR CYNL 291900Z AUTO 07007KT 9SM FEW052 SCT200 20/06 A2999 RMK AO1 SLP152
METAR CYNL 291800Z AUTO 06007G17KT 9SM CLR 19/06 A2999 RMK AO1 SLP152
METAR CYNL 291700Z AUTO 06008G18KT 9SM FEW190 18/07 A3000 RMK AO1 SLP155
METAR CYNL 291600Z AUTO 10004KT 9SM FEW200 17/07 A3000 RMK AO1 SLP155
METAR CYNL 291500Z AUTO 07007KT 9SM CLR 17/07 A3001 RMK AO1 SLP155
METAR CYNL 291400Z AUTO 08005KT 9SM CLR 15/08 A3000 RMK AO1 SLP152
METAR CYNL 291300Z AUTO 09005KT 9SM CLR 15/09 A2999 RMK AO1 SLP147
METAR CYNL 291200Z AUTO 04002KT 9SM FEW190 13/09 A2998 RMK AO1 PRESRR SLP147
METAR CYNL 291100Z AUTO 05003KT 9SM CLR 10/09 A2996 RMK AO1 SLP140
METAR CYNL 291000Z AUTO 01002KT 9SM CLR 08/08 A2995 RMK AO1 SLP139
METAR CYNL 290900Z AUTO 03003KT 9SM CLR 09/08 A2995 RMK AO1 SLP136
METAR CYNL 290800Z AUTO 02004KT 9SM FEW220 09/07 A2994 RMK AO1 SLP135
METAR CYNL 290700Z AUTO 00000KT 9SM CLR 11/08 A2994 RMK AO1 SLP135
METAR CYNL 290600Z AUTO 05003KT 9SM CLR 12/08 A2993 RMK AO1 SLP130
METAR CYNL 290500Z AUTO 08003KT 9SM CLR 14/08 A2993 RMK AO1 PRESRR SLP127
METAR CYNL 290400Z AUTO 08003KT 9SM FEW220 16/08 A2991 RMK AO1 SLP117
METAR CYNL 290300Z AUTO 08007KT 9SM CLR 18/07 A2989 RMK AO1 PRESRR SLP111
METAR CYNL 290200Z AUTO 10010G17KT 9SM CLR 20/07 A2987 RMK AO1 SLP102
METAR CYNL 290100Z AUTO 08010KT 9SM CLR 19/07 A2985 RMK AO1 SLP099
METAR CYNL 290000Z AUTO 11011G16KT 9SM CLR 20/07 A2985 RMK AO1 SLP101
METAR CYNL 282300Z AUTO 11009G17KT 9SM CLR 21/07 A2984 RMK AO1 WSHFT (22)53 SLP097
SPECI CYNL 282253Z AUTO 10012G17KT 9SM CLR 21/07 A2984 RMK AO1 WSHFT (22)53 SLP097
METAR CYNL 282200Z AUTO 08011G18KT 9SM FEW230 22/07 A2983 RMK AO1 SLP093
SPECI CYNL 282130Z AUTO 10011G17KT 9SM CLR 22/06 A2984 RMK AO1 WSHFT (21)30 SLP094
METAR CYNL 282100Z AUTO 09014KT 9SM CLR 22/06 A2984 RMK AO1 SLP094
METAR CYNL 282000Z AUTO 05009G15KT 9SM SCT054 21/07 A2982 RMK AO1 SLP091
SPECI CYNL 281929Z AUTO 03011G17KT 9SM SCT054 21/07 A2981 RMK AO1 WSHFT (19)29 SLP088
METAR CYNL 281900Z AUTO 05010G15KT 9SM FEW054 21/07 A2981 RMK AO1 SLP086
METAR CYNL 281800Z AUTO 07008G17KT 9SM CLR 21/08 A2979 RMK AO1 SLP079
METAR CYNL 281700Z AUTO 07010KT 9SM FEW044 20/08 A2980 RMK AO1 SLP082
METAR CYNL 281600Z AUTO 05006KT 9SM SCT032 18/09 A2980 RMK AO1 SLP083
METAR CYNL 281500Z AUTO 06007KT 9SM CLR 18/10 A2980 RMK AO1 SLP083
METAR CYNL 281400Z AUTO 07005KT 9SM CLR 16/11 A2979 RMK AO1 SLP078
METAR CYNL 281300Z AUTO 06005KT 9SM CLR 14/11 A2977 RMK AO1 PRESRR SLP074
METAR CYNL 281200Z AUTO 04005KT 9SM CLR 14/11 A2975 RMK AO1 PRESRR SLP067
METAR CYNL 281100Z AUTO 03005KT 9SM CLR 13/11 A2973 RMK AO1 SLP058
METAR CYNL 281000Z AUTO 06006KT 9SM FEW050 13/10 A2971 RMK AO1 SLP053
METAR CYNL 280900Z AUTO 06005KT 9SM FEW043 BKN100 13/10 A2971 RMK AO1 SLP051
METAR CYNL 280800Z AUTO 03004KT 9SM SCT098 BKN120 13/11 A2970 RMK AO1 SLP050
METAR CYNL 280700Z AUTO 00000KT 9SM FEW120 14/11 A2970 RMK AO1 SLP047
METAR CYNL 280600Z AUTO 01003KT 9SM BKN046 OVC062 15/11 A2970 RMK AO1 SLP046
METAR CYNL 280500Z AUTO 33004KT 9SM OVC058 15/11 A2968 RMK AO1 SLP042
SPECI CYNL 280405Z AUTO 06006KT 8SM FEW008 BKN066 15/11 A2968 RMK AO1 SLP043
METAR CYNL 280400Z AUTO 05006KT 6SM FEW035 SCT066 BKN078 15/11 A2968 RMK AO1 SLP042
SPECI CYNL 280352Z AUTO 06008KT 7SM FEW009 SCT080 16/10 A2968 RMK AO1 SLP041
METAR CYNL 280300Z AUTO 07003KT 9SM SCT082 18/09 A2967 RMK AO1 SLP037
METAR CYNL 280200Z AUTO 06006KT 9SM FEW086 19/08 A2967 RMK AO1 SLP037
METAR CYNL 280100Z AUTO 11008KT 9SM FEW070 20/08 A2967 RMK AO1 SLP037
METAR CYNL 280000Z AUTO 09006KT 9SM SCT110 21/07 A2966 RMK AO1 SLP036
METAR CYNL 272300Z AUTO 08007KT 9SM BKN094 21/08 A2967 RMK AO1 SLP038
METAR CYNL 272200Z AUTO 05010KT 9SM CLR 21/07 A2967 RMK AO1 SLP038
METAR CYNL 272100Z AUTO 09008KT 9SM FEW210 20/09 A2967 RMK AO1 SLP041
METAR CYNL 272000Z AUTO 09011KT 9SM SCT048 20/09 A2967 RMK AO1 SLP040
METAR CYNL 271900Z AUTO 09006KT 9SM FEW045 SCT210 20/09 A2967 RMK AO1 SLP040
METAR CYNL 271800Z AUTO 09007KT 9SM FEW044 SCT088 19/10 A2968 RMK AO1 SLP042
METAR CYNL 271700Z AUTO 07009KT 9SM FEW086 19/10 A2969 RMK AO1 SLP045
METAR CYNL 271600Z AUTO 07006KT 9SM BKN084 19/09 A2969 RMK AO1 SLP044
METAR CYNL 271500Z AUTO 08005KT 9SM CLR 16/09 A2969 RMK AO1 SLP046
METAR CYNL 271400Z AUTO 08005KT 9SM FEW056 BKN088 16/10 A2970 RMK AO1 SLP048
METAR CYNL 271300Z AUTO 00000KT 9SM SCT045 OVC088 14/11 A2970 RMK AO1 SLP048
METAR CYNL 271200Z AUTO 10003KT 9SM FEW064 OVC082 13/10 A2969 RMK AO1 SLP047
METAR CYNL 271100Z AUTO 08004KT 9SM OVC078 13/11 A2969 RMK AO1 SLP047
METAR CYNL 271000Z AUTO 08004KT 9SM OVC074 13/11 A2970 RMK AO1 SLP050
METAR CYNL 270900Z AUTO 03006KT 9SM FEW032 BKN056 OVC076 13/10 A2970 RMK AO1 SLP048
SPECI CYNL 270836Z AUTO 05005KT 3SM OVC054 13/10 A2970 RMK AO1 SLP050
SPECI CYNL 270834Z AUTO 08004KT 2SM OVC054 13/11 A2971 RMK AO1 SLP051
SPECI CYNL 270833Z AUTO 08004KT 1 3/4SM OVC054 13/10 A2971 RMK AO1 SLP051
SPECI CYNL 270832Z AUTO 09004KT 2SM OVC052 13/10 A2971 RMK AO1 SLP051
METAR CYNL 270800Z AUTO 04004KT 9SM OVC054 13/10 A2970 RMK AO1 SLP050
METAR CYNL 270700Z AUTO 09005KT 8SM OVC060 14/10 A2971 RMK AO1 SLP052
METAR CYNL 270600Z AUTO 33004KT 9SM FEW037 SCT060 BKN072 14/11 A2970 RMK AO1 SLP048
METAR CYNL 270500Z AUTO 21004KT 9SM BKN076 BKN090 16/10 A2971 RMK AO1 SLP049
METAR CYNL 270400Z AUTO 23005KT 9SM CLR 17/08 A2970 RMK AO1 SLP046
METAR CYNL 270300Z AUTO 00000KT 9SM SCT120 19/06 A2970 RMK AO1 SLP043
METAR CYNL 270200Z AUTO 19003KT 9SM BKN088 19/05 A2970 RMK AO1 SLP045
METAR CYNL 270100Z AUTO 22006KT 9SM BKN082 20/04 A2971 RMK AO1 SLP047
METAR CYNL 270000Z AUTO 23006KT 9SM FEW140 20/04 A2971 RMK AO1 SLP050
METAR CYNL 262300Z AUTO 26006KT 9SM OVC096 19/06 A2972 RMK AO1 SLP055
METAR CYNL 262200Z AUTO 19009KT 9SM FEW100 20/06 A2972 RMK AO1 SLP056
SPECI CYNL 262103Z AUTO 22012G17KT 190V250 9SM SCT096 20/06 A2972 RMK AO1 WSHFT (21)03 SLP055
METAR CYNL 262100Z AUTO 23012G17KT 200V260 9SM SCT098 21/05 A2971 RMK AO1 SLP055
METAR CYNL 262000Z AUTO 21007KT 9SM SCT094 21/02 A2971 RMK AO1 SLP053
METAR CYNL 261900Z AUTO 22006KT 9SM FEW100 21/03 A2971 RMK AO1 SLP055
METAR CYNL 261800Z AUTO 25007KT 9SM FEW100 SCT210 21/05 A2971 RMK AO1 SLP052
METAR CYNL 261700Z AUTO 28003KT 9SM FEW094 SCT170 20/03 A2971 RMK AO1 SLP053
METAR CYNL 261600Z AUTO 32006KT 240V030 9SM FEW094 21/03 A2972 RMK AO1 SLP053
METAR CYNL 261500Z AUTO 30004KT 9SM CLR 20/04 A2972 RMK AO1 SLP054
METAR CYNL 261400Z AUTO 32006KT 9SM CLR 19/05 A2973 RMK AO1 SLP054
METAR CYNL 261300Z AUTO 29003KT 9SM SCT170 17/07 A2973 RMK AO1 SLP056
METAR CYNL 261200Z AUTO 26003KT 9SM FEW170 15/08 A2972 RMK AO1 SLP054
METAR CYNL 261100Z AUTO 25003KT 9SM SCT180 13/08 A2972 RMK AO1 SLP055
METAR CYNL 261000Z AUTO 29005KT 9SM CLR 12/07 A2972 RMK AO1 SLP058
METAR CYNL 260900Z AUTO 28003KT 9SM CLR 13/08 A2972 RMK AO1 SLP054
METAR CYNL 260800Z AUTO 30004KT 9SM CLR 12/09 A2972 RMK AO1 SLP057
METAR CYNL 260700Z AUTO 26003KT 9SM CLR 13/09 A2972 RMK AO1 SLP061
METAR CYNL 260600Z AUTO 24003KT 9SM CLR 13/10 A2972 RMK AO1 SLP056
METAR CYNL 260500Z AUTO 22004KT 9SM CLR 15/08 A2973 RMK AO1 SLP054
METAR CYNL 260400Z AUTO 20003KT 9SM BKN160 16/09 A2972 RMK AO1 SLP053
METAR CYNL 260300Z AUTO 24003KT 9SM CLR 18/09 A2973 RMK AO1 SLP056
METAR CYNL 260200Z AUTO 24004KT 9SM FEW180 19/07 A2973 RMK AO1 SLP060
METAR CYNL 260100Z AUTO 28007KT 9SM CLR 22/05 A2974 RMK AO1 SLP060
METAR CYNL 260000Z AUTO 22004KT 9SM CLR 21/06 A2974 RMK AO1 PRESFR SLP063
METAR CYNL 252300Z AUTO 29012G24KT 9SM SCT076 17/09 A2976 RMK AO1 PRESRR SLP076
METAR CYNL 252200Z AUTO 16005KT 9SM CLR 22/07 A2972 RMK AO1 PRESFR SLP056
METAR CYNL 252100Z AUTO 16006KT 9SM FEW120 20/08 A2974 RMK AO1 SLP066
METAR CYNL 252000Z AUTO 21005KT 9SM FEW062 SCT080 16/11 A2976 RMK AO1 SLP077
METAR CYNL 251900Z AUTO 29008G16KT 5SM FEW007 BKN058 20/10 A2975 RMK AO1 SLP068
SPECI CYNL 251859Z AUTO 29012KT 5SM FEW009 BKN058 20/09 A2975 RMK AO1 SLP067
METAR CYNL 251800Z AUTO 07003KT 9SM FEW110 22/08 A2975 RMK AO1 SLP065
METAR CYNL 251700Z AUTO 00000KT 9SM SCT190 22/08 A2976 RMK AO1 SLP070
METAR CYNL 251600Z AUTO 00000KT 9SM FEW210 19/14 A2977 RMK AO1 SLP071
METAR CYNL 251500Z AUTO 00000KT 9SM FEW240 16/16 A2977 RMK AO1 SLP074
SPECI CYNL 251426Z AUTO 17002KT 9SM SCT002 BKN200 15/15 A2978 RMK AO1 SLP074
SPECI CYNL 251409Z AUTO 23002KT 3SM OVC002 14/14 A2978 RMK AO1 SLP075
SPECI CYNL 251408Z AUTO 21002KT 2 1/2SM OVC002 14/14 A2978 RMK AO1 SLP075
SPECI CYNL 251404Z AUTO 26002KT 1 3/4SM OVC002 14/14 A2978 RMK AO1 SLP075
SPECI CYNL 251403Z AUTO 26002KT 2SM OVC002 14/14 A2978 RMK AO1 SLP075
SPECI CYNL 251402Z AUTO VRB03KT 1 3/4SM OVC002 14/14 A2978 RMK AO1 SLP075
SPECI CYNL 251401Z AUTO 00000KT 1 1/4SM OVC002 14/14 A2978 RMK AO1 SLP075
METAR CYNL 251400Z AUTO 00000KT 1 1/2SM OVC002 14/14 A2978 RMK AO1 SLP075
SPECI CYNL 251359Z AUTO 24002KT 1 3/4SM OVC002 14/14 A2978 RMK AO1 SLP075
SPECI CYNL 251358Z AUTO 23002KT 2SM OVC002 14/14 A2978 RMK AO1 SLP074
SPECI CYNL 251354Z AUTO 21003KT 1 1/2SM OVC002 14/14 A2978 RMK AO1 SLP075
SPECI CYNL 251352Z AUTO 00000KT 1SM OVC002 14/14 A2978 RMK AO1 SLP075
SPECI CYNL 251351Z AUTO 00000KT 3/4SM OVC002 14/14 A2978 RMK AO1 SLP075
SPECI CYNL 251350Z AUTO 00000KT 5/8SM OVC002 14/14 A2978 RMK AO1 SLP076
SPECI CYNL 251348Z AUTO 23003KT 3/4SM OVC002 14/14 A2978 RMK AO1 SLP076
SPECI CYNL 251344Z AUTO 22002KT 5/8SM OVC001 14/14 A2978 RMK AO1 SLP076
SPECI CYNL 251343Z AUTO 23002KT 3/4SM OVC001 14/14 A2978 RMK AO1 SLP076
SPECI CYNL 251338Z AUTO 24002KT 1/4SM VV001 13/13 A2978 RMK AO1 SLP077
SPECI CYNL 251306Z AUTO 25002KT 1/8SM OVC002 13/13 A2979 RMK AO1 SLP080
METAR CYNL 251300Z AUTO 25003KT 3/8SM OVC002 13/13 A2979 RMK AO1 SLP080
SPECI CYNL 251259Z AUTO 25002KT 5/8SM OVC002 13/13 A2979 RMK AO1 SLP080
SPECI CYNL 251256Z AUTO 00000KT 3/4SM OVC002 13/13 A2979 RMK AO1 SLP079
SPECI CYNL 251236Z AUTO 00000KT 1/4SM VV001 12/12 A2979 RMK AO1 SLP079
SPECI CYNL 251225Z AUTO 00000KT 1/8SM OVC001 12/12 A2979 RMK AO1 SLP080
SPECI CYNL 251222Z AUTO 00000KT 1/4SM OVC001 12/12 A2979 RMK AO1 SLP080
SPECI CYNL 251219Z AUTO 00000KT 1/8SM OVC001 12/12 A2979 RMK AO1 SLP080
SPECI CYNL 251215Z AUTO 00000KT 1/4SM VV002 12/12 A2979 RMK AO1 SLP080
METAR CYNL 251200Z AUTO 00000KT 0SM VV001 11/11 A2979 RMK AO1 SLP080
METAR CYNL 251100Z AUTO 09003KT 0SM VV001 10/10 A2979 RMK AO1 SLP081
SPECI CYNL 251015Z AUTO 10004KT 0SM VV001 10/10 A2979 RMK AO1 SLP082
SPECI CYNL 251010Z AUTO 12005KT 1/8SM FEW002 10/10 A2979 RMK AO1 SLP082
SPECI CYNL 251008Z AUTO 20006KT 120V280 1/4SM FEW002 10/10 A2979 RMK AO1 SLP082
SPECI CYNL 251006Z AUTO 20006KT 120V290 1/8SM FEW002 10/10 A2979 RMK AO1 SLP081
SPECI CYNL 251005Z AUTO 20006KT 120V290 1/4SM FEW002 10/10 A2979 RMK AO1 SLP081
METAR CYNL 251000Z AUTO 00000KT 1/4SM CLR 10/10 A2978 RMK AO1 SLP079
SPECI CYNL 250959Z AUTO 28002KT 1/4SM CLR 10/10 A2978 RMK AO1 SLP079
SPECI CYNL 250955Z AUTO 29003KT 1/8SM CLR 10/10 A2978 RMK AO1 SLP079
SPECI CYNL 250948Z AUTO 31002KT 5/8SM CLR 10/10 A2978 RMK AO1 SLP080
SPECI CYNL 250943Z AUTO 00000KT 1SM FEW001 10/10 A2978 RMK AO1 SLP080
SPECI CYNL 250942Z AUTO 00000KT 1 1/2SM FEW001 10/10 A2978 RMK AO1 SLP080
SPECI CYNL 250941Z AUTO 00000KT 1SM FEW001 10/10 A2978 RMK AO1 SLP080
SPECI CYNL 250937Z AUTO 00000KT 1/4SM FEW001 10/10 A2978 RMK AO1 SLP080
SPECI CYNL 250928Z AUTO 00000KT 0SM SCT001 10/10 A2979 RMK AO1 SLP081
SPECI CYNL 250905Z AUTO 00000KT 0SM VV001 10/10 A2979 RMK AO1 SLP081
METAR CYNL 250900Z AUTO 09003KT 0SM FEW001 10/10 A2979 RMK AO1 SLP081
SPECI CYNL 250848Z AUTO 07002KT 0SM FEW001 10/10 A2979 RMK AO1 SLP082
SPECI CYNL 250828Z AUTO 30005KT 1/8SM CLR 10/10 A2979 RMK AO1 SLP082
SPECI CYNL 250822Z AUTO 00000KT 5/8SM CLR 11/11 A2979 RMK AO1 SLP081
SPECI CYNL 250814Z AUTO 00000KT 9SM CLR 11/11 A2978 RMK AO1 SLP080
SPECI CYNL 250813Z AUTO 00000KT 2 1/2SM CLR 11/11 A2978 RMK AO1 SLP080
SPECI CYNL 250810Z AUTO 00000KT 1/2SM CLR 11/11 A2978 RMK AO1 SLP080
SPECI CYNL 250809Z AUTO 00000KT 1 1/4SM CLR 11/11 A2978 RMK AO1 SLP080
SPECI CYNL 250808Z AUTO 00000KT 1 3/4SM CLR 11/11 A2978 RMK AO1 SLP081
SPECI CYNL 250801Z AUTO 00000KT 5SM FEW001 11/11 A2979 RMK AO1 SLP081
METAR CYNL 250800Z AUTO 00000KT 2 1/2SM FEW001 11/11 A2979 RMK AO1 SLP082
SPECI CYNL 250758Z AUTO 00000KT 1SM FEW001 11/11 A2979 RMK AO1 SLP083
SPECI CYNL 250755Z AUTO 00000KT 1SM FEW001 11/11 A2979 RMK AO1 SLP084
SPECI CYNL 250754Z AUTO 00000KT 1 1/2SM FEW001 11/11 A2979 RMK AO1 SLP084
SPECI CYNL 250753Z AUTO 00000KT 1SM FEW001 11/11 A2979 RMK AO1 SLP084
SPECI CYNL 250751Z AUTO 00000KT 1/4SM FEW001 11/11 A2979 RMK AO1 SLP084
SPECI CYNL 250748Z AUTO 00000KT 1/8SM FEW001 11/11 A2979 RMK AO1 SLP084
SPECI CYNL 250746Z AUTO 00000KT 1/4SM FEW001 11/11 A2979 RMK AO1 SLP084
SPECI CYNL 250733Z AUTO 15004KT 1/8SM FEW001 11/11 A2980 RMK AO1 SLP085
SPECI CYNL 250730Z AUTO 12002KT 1/2SM CLR 10/10 A2979 RMK AO1 SLP085
SPECI CYNL 250729Z AUTO 00000KT 1 1/4SM CLR 10/10 A2979 RMK AO1 SLP085
SPECI CYNL 250720Z AUTO 00000KT 3SM CLR 11/11 A2979 RMK AO1 SLP084
SPECI CYNL 250719Z AUTO 00000KT 1/4SM CLR 11/11 A2979 RMK AO1 SLP084
SPECI CYNL 250717Z AUTO 00000KT 1/8SM CLR 11/11 A2979 RMK AO1 SLP083
SPECI CYNL 250715Z AUTO 00000KT 1/4SM CLR 11/11 A2979 RMK AO1 SLP083
SPECI CYNL 250703Z AUTO 00000KT 1/8SM CLR 11/11 A2979 RMK AO1 SLP083
SPECI CYNL 250701Z AUTO 00000KT 1/2SM CLR 11/11 A2979 RMK AO1 SLP083
METAR CYNL 250700Z AUTO 00000KT 1 3/4SM CLR 11/11 A2979 RMK AO1 SLP083
SPECI CYNL 250659Z AUTO 00000KT 2 1/2SM CLR 11/11 A2979 RMK AO1 SLP083
SPECI CYNL 250656Z AUTO 00000KT 6SM CLR 11/11 A2979 RMK AO1 SLP084
SPECI CYNL 250655Z AUTO 00000KT 2 1/2SM CLR 12/11 A2979 RMK AO1 SLP084
SPECI CYNL 250650Z AUTO 00000KT 9SM CLR 12/12 A2979 RMK AO1 SLP084
SPECI CYNL 250647Z AUTO 00000KT 2SM CLR 12/12 A2979 RMK AO1 SLP084
SPECI CYNL 250631Z AUTO 00000KT 6SM CLR 12/12 A2979 RMK AO1 SLP084
SPECI CYNL 250630Z AUTO 00000KT 1 1/4SM CLR 12/12 A2979 RMK AO1 SLP084
SPECI CYNL 250628Z AUTO 00000KT 1/2SM CLR 12/12 A2979 RMK AO1 SLP084
SPECI CYNL 250627Z AUTO 00000KT 3/4SM CLR 12/12 A2979 RMK AO1 SLP085
SPECI CYNL 250625Z AUTO 00000KT 1 1/4SM CLR 12/11 A2980 RMK AO1 SLP085
SPECI CYNL 250624Z AUTO 00000KT 2 1/2SM CLR 12/11 A2980 RMK AO1 SLP085
METAR CYNL 250600Z AUTO 00000KT 9SM CLR 13/13 A2980 RMK AO1 SLP085
METAR CYNL 250500Z AUTO 00000KT 9SM CLR 15/13 A2980 RMK AO1 SLP082
METAR CYNL 250400Z AUTO 16004KT 9SM CLR 17/14 A2980 RMK AO1 SLP082
METAR CYNL 250300Z AUTO 15006KT 9SM CLR 20/13 A2979 RMK AO1 SLP077
METAR CYNL 250200Z AUTO 16006KT 9SM CLR 21/12 A2978 RMK AO1 SLP071
METAR CYNL 250100Z AUTO 15004KT 9SM CLR 22/10 A2978 RMK AO1 SLP070
METAR CYNL 250000Z AUTO 11005KT 9SM CLR 22/10 A2979 RMK AO1 SLP075
METAR CYNL 242200Z AUTO 14007KT 9SM BKN033 21/13 A RMK AO1 SLPNO B1
METAR CYNL 242100Z AUTO 14005KT 9SM FEW150 21/11 A RMK AO1 SLPNO B1
METAR CYNL 242000Z AUTO 02005KT 350V060 9SM SCT022 BKN200 19/12 A RMK AO1 SLPNO B1
METAR CYNL 241900Z AUTO 00000KT 9SM FEW068 SCT140 18/14 A RMK AO1 SLPNO B1
METAR CYNL 241800Z AUTO 00000KT 9SM FEW080 18/14 A RMK AO1 SLPNO B1
METAR CYNL 241700Z AUTO 00000KT 9SM CLR 17/14 A RMK AO1 SLPNO B1
METAR CYNL 241600Z AUTO 00000KT 9SM FEW040 BKN080 17/15 A RMK AO1 SLPNO B1
METAR CYNL 241500Z AUTO 23004KT 9SM SCT076 17/14 A RMK AO1 SLPNO B1
METAR CYNL 241400Z AUTO 26004KT 9SM FEW110 16/15 A RMK AO1 SLPNO B1
METAR CYNL 241300Z AUTO 25004KT 9SM FEW110 15/15 A RMK AO1 SLPNO B1
METAR CYNL 241200Z AUTO 00000KT 9SM FEW078 15/15 A RMK AO1 SLPNO B1
METAR CYNL 241100Z AUTO 14005KT 9SM FEW047 BKN070 14/14 A RMK AO1 SLPNO B1
METAR CYNL 241000Z AUTO 12003KT 9SM FEW072 14/14 A RMK AO1 SLPNO B1
METAR CYNL 240900Z AUTO 27002KT 9SM FEW044 BKN056 15/14 A RMK AO1 SLPNO B1
METAR CYNL 240800Z AUTO 24004KT 9SM SCT140 15/14 A RMK AO1 SLPNO B1
METAR CYNL 240700Z AUTO 22003KT 9SM SCT092 BKN140 16/14 A RMK AO1 SLPNO B1
METAR CYNL 240600Z AUTO 22003KT 9SM BKN088 16/14 A RMK AO1 SLPNO B1
METAR CYNL 240500Z AUTO 23003KT 9SM BKN088 16/14 A RMK AO1 SLPNO B1
METAR CYNL 240400Z AUTO 20004KT 9SM SCT098 17/14 A RMK AO1 SLPNO B1
METAR CYNL 240300Z AUTO 18004KT 9SM FEW008 SCT094 17/15 A RMK AO1 SLPNO B1
SPECI CYNL 240245Z AUTO 23004KT 9SM FEW008 SCT012 17/15 A RMK AO1 SLPNO B1
SPECI CYNL 240242Z AUTO 23002KT 8SM VV009 17/15 A RMK AO1 SLPNO B1
SPECI CYNL 240237Z AUTO 24003KT 7SM FEW009 17/15 A RMK AO1 SLPNO B1
METAR CYNL 240200Z AUTO 24004KT 9SM FEW098 18/15 A RMK AO1 SLPNO B1
SPECI CYNL 240144Z AUTO 23004KT 9SM FEW007 18/15 A RMK AO1 SLPNO B1
SPECI CYNL 240110Z AUTO 24003KT 4SM FEW035 OVC068 17/15 A RMK AO1 SLPNO B1
SPECI CYNL 240105Z AUTO 24008G16KT 2SM FEW035 OVC068 18/14 A RMK AO1 SLPNO B1
SPECI CYNL 240103Z AUTO 24007G16KT 1 3/4SM FEW032 OVC068 18/14 A RMK AO1 SLPNO B1
METAR CYNL 240100Z AUTO 23009G16KT 2SM FEW002 SCT050 OVC068 19/14 A RMK AO1 SLPNO B1
SPECI CYNL 240055Z AUTO 23008G17KT 2 1/2SM FEW002 OVC068 20/14 A RMK AO1 SLPNO B1
SPECI CYNL 240054Z AUTO 23007G18KT 1 3/4SM FEW002 BKN070 OVC098 20/14 A RMK AO1 SLPNO B1
SPECI CYNL 240053Z AUTO 24008G18KT 1SM FEW002 BKN070 20/14 A RMK AO1 SLPNO B1
SPECI CYNL 240051Z AUTO 24010G18KT 1 1/4SM FEW042 BKN070 21/14 A RMK AO1 SLPNO B1
SPECI CYNL 240050Z AUTO 24012G18KT 2 1/2SM FEW040 BKN070 BKN098 21/13 A RMK AO1 SLPNO B1
METAR CYNL 240000Z AUTO 30004KT 9SM FEW074 23/10 A RMK AO1 SLPNO B1
METAR CYNL 232300Z AUTO 18007G15KT 9SM SCT110 25/08 A RMK AO1 SLPNO B1
METAR CYNL 232200Z AUTO 18010KT 9SM FEW110 25/08 A RMK AO1 SLPNO B1
METAR CYNL 232100Z AUTO 19008G18KT 9SM SCT110 25/07 A RMK AO1 SLPNO B1
METAR CYNL 232000Z AUTO 20006KT 9SM SCT100 25/07 A RMK AO1 SLPNO B1
METAR CYNL 231900Z AUTO 23012KT 9SM FEW110 SCT160 26/06 A RMK AO1 SLPNO B1
SPECI CYNL 231825Z AUTO 23011KT 9SM FEW110 27/07 A RMK AO1 WSHFT (18)25 SLPNO B1
SPECI CYNL 231807Z AUTO 23010G15KT 9SM FEW100 26/06 A RMK AO1 WSHFT (18)07 SLPNO B1
METAR CYNL 231800Z AUTO 19007KT 9SM FEW080 SCT180 26/07 A RMK AO1 SLPNO B1
METAR CYNL 231700Z AUTO 21007G16KT 9SM FEW074 26/06 A RMK AO1 SLPNO B1
METAR CYNL 231600Z AUTO 20008KT 9SM FEW170 26/07 A RMK AO1 SLPNO B1
METAR CYNL 231500Z AUTO 17005KT 9SM CLR 23/08 A RMK AO1 SLPNO B1
METAR CYNL 231400Z AUTO 18006KT 9SM CLR 21/10 A RMK AO1 SLPNO B1
METAR CYNL 231300Z AUTO 24004KT 9SM CLR 19/10 A RMK AO1 SLPNO B1
METAR CYNL 231200Z AUTO 25003KT 9SM CLR 16/09 A RMK AO1 SLPNO B1
METAR CYNL 231100Z AUTO 24002KT 9SM CLR 14/08 A RMK AO1 SLPNO B1
METAR CYNL 231000Z AUTO 24004KT 9SM CLR 12/09 A RMK AO1 SLPNO B1
METAR CYNL 230900Z AUTO 24003KT 9SM CLR 13/09 A RMK AO1 SLPNO B1
METAR CYNL 230800Z AUTO 24003KT 9SM CLR 13/09 A RMK AO1 SLPNO B1
METAR CYNL 230700Z AUTO 24004KT 9SM CLR 13/09 A RMK AO1 SLPNO B1
METAR CYNL 230600Z AUTO 24004KT 9SM CLR 15/09 A RMK AO1 SLPNO B1
METAR CYNL 230500Z AUTO 23004KT 9SM CLR 17/09 A RMK AO1 SLPNO B1
METAR CYNL 230400Z AUTO 00000KT 9SM CLR 21/07 A RMK AO1 SLPNO B1
METAR CYNL 230300Z AUTO 27003KT 9SM SCT110 25/03 A RMK AO1 SLPNO B1
METAR CYNL 230200Z AUTO 27005KT 9SM FEW110 27/03 A RMK AO1 SLPNO B1
METAR CYNL 230100Z AUTO 25007KT 9SM FEW110 27/01 A RMK AO1 SLPNO B1
METAR CYNL 230000Z AUTO 26007KT 220V300 9SM CLR 28/01 A RMK AO1 SLPNO B1
METAR CYNL 222300Z AUTO 25004KT 9SM FEW100 27/01 A RMK AO1 SLPNO B1
METAR CYNL 222200Z AUTO 19008KT 120V270 9SM SCT100 27/01 A RMK AO1 SLPNO B1
METAR CYNL 222100Z AUTO 03006KT 330V080 9SM FEW200 27/01 A RMK AO1 SLPNO B1
METAR CYNL 222000Z AUTO 26007KT 9SM FEW100 SCT210 27/01 A RMK AO1 SLPNO B1
METAR CYNL 221900Z AUTO 33007KT 9SM BKN096 25/01 A RMK AO1 SLPNO B1
METAR CYNL 221800Z AUTO 33009KT 290V000 9SM FEW090 26/01 A RMK AO1 SLPNO B1
METAR CYNL 221700Z AUTO 35008KT 310V020 9SM CLR 25/03 A RMK AO1 SLPNO B1
METAR CYNL 221500Z AUTO 32006KT 9SM CLR 23/04 A RMK AO1 SLPNO B1
METAR CYNL 221400Z AUTO 33008KT 9SM CLR 21/04 A RMK AO1 SLPNO B1
METAR CYNL 221300Z AUTO 29005KT 9SM CLR 18/05 A RMK AO1 SLPNO B1
METAR CYNL 221200Z AUTO 25006KT 9SM CLR 14/06 A RMK AO1 SLPNO B1
METAR CYNL 221100Z AUTO 24006KT 9SM CLR 11/06 A RMK AO1 SLPNO B1
METAR CYNL 221000Z AUTO 24004KT 9SM CLR 11/05 A RMK AO1 SLPNO B1
METAR CYNL 220900Z AUTO 24003KT 9SM CLR 12/06 A RMK AO1 SLPNO B1
METAR CYNL 220800Z AUTO 22004KT 9SM CLR 13/04 A RMK AO1 SLPNO B1
METAR CYNL 220700Z AUTO 19005KT 9SM SCT100 15/04 A RMK AO1 SLPNO B1
METAR CYNL 220600Z AUTO 20004KT 9SM CLR 15/04 A RMK AO1 SLPNO B1
METAR CYNL 220500Z AUTO 17005KT 9SM CLR 16/05 A RMK AO1 SLPNO B1
METAR CYNL 220400Z AUTO 20003KT 9SM CLR 18/05 A RMK AO1 SLPNO B1
METAR CYNL 220300Z AUTO 15003KT 9SM CLR 22/02 A RMK AO1 SLPNO B1
METAR CYNL 220200Z AUTO 15005KT 9SM CLR 23/01 A RMK AO1 SLPNO B1
METAR CYNL 220100Z AUTO 14006KT 9SM CLR 24/00 A RMK AO1 SLPNO B1
METAR CYNL 200200Z AUTO ///// 9SM CLR 15/01 A2998 RMK AO1 SLP152
METAR CYNL 200100Z AUTO 10010G16KT 9SM CLR 14/02 A2999 RMK AO1 SLP155
SPECI CYNL 200004Z AUTO 06012KT 9SM CLR 14/02 A3000 RMK AO1 WSHFT (00)04 SLP159
METAR CYNL 200000Z AUTO 08008KT 9SM CLR 14/03 A3000 RMK AO1 SLP159
METAR CYNL 192300Z AUTO 07011G19KT 9SM CLR 15/02 A3001 RMK AO1 SLP163
METAR CYNL 191900Z AUTO 07010G19KT 9SM FEW180 15/M02 A3002 RMK AO1 SLP171
SPECI CYNL 191833Z AUTO 06013KT 9SM CLR 14/M03 A3002 RMK AO1 WSHFT (18)33 SLP170
SPECI CYNL 191805Z AUTO 06012G17KT 9SM CLR 14/M03 A3002 RMK AO1 WSHFT (18)05 SLP171
METAR CYNL 191800Z AUTO 09011G17KT 9SM CLR 14/M03 A3003 RMK AO1 SLP172
SPECI CYNL 191743Z AUTO 09012G18KT 9SM CLR 14/M03 A3003 RMK AO1 WSHFT (17)43 SLP172
METAR CYNL 191700Z AUTO 07013G19KT 9SM CLR 14/M05 A3004 RMK AO1 SLP175
METAR CYNL 191600Z AUTO 07013G20KT 9SM CLR 13/M06 A3004 RMK AO1 SLP177
METAR CYNL 191500Z AUTO 08012G18KT 9SM CLR 12/M06 A3004 RMK AO1 SLP176
METAR CYNL 191400Z AUTO 06009KT 9SM CLR 11/M03 A3004 RMK AO1 SLP173
METAR CYNL 191300Z AUTO 07010KT 9SM CLR 10/M04 A3005 RMK AO1 SLP176
METAR CYNL 191200Z AUTO 04009KT 9SM CLR 09/M00 A3005 RMK AO1 SLP175
METAR CYNL 191100Z AUTO 06006KT 9SM CLR 07/01 A3006 RMK AO1 SLP182
METAR CYNL 191000Z AUTO 06006KT 9SM CLR 06/00 A3007 RMK AO1 SLP187
METAR CYNL 190900Z AUTO 04005KT 9SM CLR 06/M00 A3008 RMK AO1 SLP187
METAR CYNL 190800Z AUTO 04006KT 9SM CLR 06/M00 A3008 RMK AO1 SLP189
METAR CYNL 190700Z AUTO 05005KT 9SM CLR 08/M01 A3009 RMK AO1 SLP191
METAR CYNL 190600Z AUTO 05007KT 9SM CLR 10/M01 A3010 RMK AO1 SLP193
METAR CYNL 190500Z AUTO 04005KT 9SM CLR 09/M01 A3010 RMK AO1 SLP196
METAR CYNL 190400Z AUTO 04004KT 9SM CLR 12/M02 A3010 RMK AO1 SLP195
METAR CYNL 190300Z AUTO 07007KT 9SM CLR 15/M03 A3011 RMK AO1 SLP196
METAR CYNL 190200Z AUTO 06009G16KT 9SM CLR 17/M04 A3011 RMK AO1 SLP196
METAR CYNL 190100Z AUTO 04011KT 9SM CLR 18/M05 A3012 RMK AO1 SLP200
METAR CYNL 190000Z AUTO 05013KT 9SM CLR 18/M07 A3013 RMK AO1 SLP206
METAR CYNL 182300Z AUTO 01008KT 9SM CLR 18/M06 A3015 RMK AO1 SLP214
SPECI CYNL 182239Z AUTO 01010KT 9SM CLR 18/M05 A3015 RMK AO1 WSHFT (22)39 SLP217
METAR CYNL 182200Z AUTO 03014KT 9SM CLR 18/M05 A3016 RMK AO1 SLP218
METAR CYNL 182100Z AUTO 07007KT 9SM CLR 17/M06 A3018 RMK AO1 SLP226
METAR CYNL 182000Z AUTO 03013G18KT 000V070 9SM CLR 17/M04 A3019 RMK AO1 WSHFT (19)52 SLP229
SPECI CYNL 181952Z AUTO 05013KT 9SM CLR 16/M05 A3018 RMK AO1 WSHFT (19)52 SLP229
METAR CYNL 181900Z AUTO 05010G18KT 010V080 9SM CLR 16/M02 A3019 RMK AO1 WSHFT (19)00 SLP232
SPECI CYNL 181838Z AUTO 07010KT 9SM CLR 15/M03 A3020 RMK AO1 WSHFT (18)38 SLP234
METAR CYNL 181800Z AUTO 06008G17KT 9SM CLR 14/M02 A3021 RMK AO1 SLP238
METAR CYNL 181700Z AUTO 02010KT 350V050 9SM CLR 13/M01 A3022 RMK AO1 SLP244
METAR CYNL 181600Z AUTO 03007KT 9SM CLR 11/00 A3024 RMK AO1 SLP250
METAR CYNL 181500Z AUTO 06007KT 9SM CLR 10/00 A3025 RMK AO1 SLP251
METAR CYNL 181400Z AUTO 06004KT 9SM CLR 08/00 A3026 RMK AO1 SLP254
METAR CYNL 181300Z AUTO 05008KT 9SM CLR 07/01 A3025 RMK AO1 SLP254
METAR CYNL 181200Z AUTO 04007KT 9SM CLR 05/00 A3026 RMK AO1 SLP256
METAR CYNL 181100Z AUTO 02006KT 9SM CLR 03/00 A3025 RMK AO1 SLP256
METAR CYNL 181000Z AUTO 03004KT 9SM CLR 02/00 A3025 RMK AO1 SLP255
METAR CYNL 180900Z AUTO 05006KT 9SM CLR 03/00 A3024 RMK AO1 SLP252
METAR CYNL 180800Z AUTO 05005KT 9SM CLR 04/00 A3023 RMK AO1 SLP248
METAR CYNL 180700Z AUTO 01005KT 9SM CLR 05/01 A3022 RMK AO1 SLP245
METAR CYNL 180600Z AUTO 01006KT 9SM CLR 06/01 A3021 RMK AO1 SLP244
METAR CYNL 180500Z AUTO 01006KT 9SM CLR 07/00 A3022 RMK AO1 SLP247
METAR CYNL 180400Z AUTO 01005KT 9SM CLR 09/M00 A3022 RMK AO1 SLP248
METAR CYNL 180300Z AUTO 02007KT 9SM CLR 11/M01 A3022 RMK AO1 SLP243
METAR CYNL 180200Z AUTO 02009G15KT 9SM CLR 12/M01 A3020 RMK AO1 SLP237
METAR CYNL 180100Z AUTO 01013KT 9SM CLR 13/00 A3019 RMK AO1 SLP236
METAR CYNL 180000Z AUTO 05010G17KT 9SM CLR 13/01 A3019 RMK AO1 WSHFT (23)58 SLP234
SPECI CYNL 172358Z AUTO 06013KT 9SM CLR 13/01 A3019 RMK AO1 WSHFT (23)58 SLP235
METAR CYNL 172300Z AUTO 01009G17KT 9SM CLR 13/01 A3019 RMK AO1 SLP234
SPECI CYNL 172209Z AUTO 04010G19KT 9SM CLR 12/01 A3019 RMK AO1 WSHFT (22)09 SLP237
METAR CYNL 172200Z AUTO 01009G17KT 9SM CLR 12/01 A3019 RMK AO1 SLP236
METAR CYNL 172100Z AUTO 02012G18KT 9SM CLR 11/M00 A3018 RMK AO1 SLP234
METAR CYNL 172000Z AUTO 02013G20KT 9SM CLR 10/01 A3017 RMK AO1 SLP230
METAR CYNL 171900Z AUTO 04009G17KT 9SM FEW019 08/02 A3018 RMK AO1 SLP237
SPECI CYNL 171851Z AUTO 04011G16KT 9SM SCT018 08/02 A3018 RMK AO1 SLP237
SPECI CYNL 171820Z AUTO 03011G17KT 9SM OVC015 07/03 A3018 RMK AO1 SLP237
METAR CYNL 171800Z AUTO 01009G15KT 9SM OVC013 07/03 A3017 RMK AO1 SLP235
METAR CYNL 171700Z AUTO 03014KT 9SM OVC011 06/03 A3016 RMK AO1 SLP233
METAR CYNL 171600Z AUTO 02013KT 9SM SCT008 BKN011 OVC014 05/03 A3016 RMK AO1 SLP231
SPECI CYNL 171540Z AUTO 02014KT 9SM SCT008 BKN010 BKN012 05/03 A3015 RMK AO1 SLP230
SPECI CYNL 171539Z AUTO 02015KT 9SM SCT008 BKN009 BKN012 05/03 A3015 RMK AO1 SLP229
SPECI CYNL 171534Z AUTO 02011G16KT 9SM FEW008 BKN011 OVC017 05/04 A3015 RMK AO1 SLP228
METAR CYNL 171500Z AUTO 03014KT 9SM OVC011 05/03 A3014 RMK AO1 SLP225
SPECI CYNL 171437Z AUTO 04014KT 9SM OVC010 05/03 A3014 RMK AO1 SLP224
METAR CYNL 171400Z AUTO 03012G20KT 9SM OVC007 04/03 A3013 RMK AO1 SLP222
METAR CYNL 171300Z AUTO 05011G18KT 9SM OVC008 04/03 A3013 RMK AO1 PRESRR SLP221
METAR CYNL 171200Z AUTO 04011G17KT 7SM OVC005 04/03 A3011 RMK AO1 SLP212
SPECI CYNL 171139Z AUTO 04014G22KT 3SM OVC005 03/03 A3010 RMK AO1 PRESRR SLP211
SPECI CYNL 171131Z AUTO 04013G21KT 2SM OVC005 03/03 A3010 RMK AO1 PRESRR SLP210
SPECI CYNL 171130Z AUTO 04015G23KT 1 3/4SM OVC005 03/03 A3010 RMK AO1 PRESRR SLP210
SPECI CYNL 171128Z AUTO 03016G23KT 2SM OVC005 03/03 A3010 RMK AO1 PRESRR SLP209
SPECI CYNL 171125Z AUTO 04015G23KT 1 3/4SM OVC005 03/03 A3009 RMK AO1 PRESRR SLP209
SPECI CYNL 171121Z AUTO 03015G23KT 2 1/2SM OVC005 03/03 A3009 RMK AO1 PRESRR SLP208
SPECI CYNL 171101Z AUTO 04017G23KT 9SM OVC005 03/03 A3009 RMK AO1 PRESRR SLP208
METAR CYNL 171100Z AUTO 03017G23KT 9SM OVC004 03/03 A3009 RMK AO1 PRESRR SLP208
SPECI CYNL 171032Z AUTO 02015G20KT 8SM BKN004 OVC006 03/03 A3008 RMK AO1 SLP204
SPECI CYNL 171031Z AUTO 02013G20KT 8SM OVC005 03/03 A3008 RMK AO1 SLP204
SPECI CYNL 171008Z AUTO 03013G19KT 6SM OVC004 03/03 A3007 RMK AO1 SLP200
METAR CYNL 171000Z AUTO 02013G21KT 8SM BKN005 OVC006 04/03 A3007 RMK AO1 SLP198
SPECI CYNL 170919Z AUTO 02016G21KT 9SM OVC005 04/03 A3006 RMK AO1 SLP196
SPECI CYNL 170915Z AUTO 02013G20KT 9SM BKN004 OVC006 04/04 A3006 RMK AO1 SLP196
METAR CYNL 170900Z AUTO 03012G19KT 9SM OVC005 04/03 A3005 RMK AO1 SLP193
SPECI CYNL 170815Z AUTO 02015G20KT 9SM OVC005 04/03 A3004 RMK AO1 SLP190
METAR CYNL 170800Z AUTO 03010G16KT 5SM BKN004 OVC006 04/03 A3004 RMK AO1 SLP190
SPECI CYNL 170751Z AUTO 03011G18KT 9SM OVC004 04/03 A3004 RMK AO1 SLP189
SPECI CYNL 170749Z AUTO 04014KT 9SM SCT003 OVC005 04/03 A3004 RMK AO1 SLP188
METAR CYNL 170700Z AUTO 02015KT 7SM OVC004 04/04 A3003 RMK AO1 SLP185
SPECI CYNL 170649Z AUTO 02012G19KT 5SM BKN004 OVC006 04/04 A3003 RMK AO1 SLP185
SPECI CYNL 170648Z AUTO 02012KT 4SM BKN005 OVC007 04/04 A3003 RMK AO1 SLP185
SPECI CYNL 170646Z AUTO 02010G16KT 3SM BKN004 OVC006 04/04 A3003 RMK AO1 SLP185
SPECI CYNL 170645Z AUTO 02009G16KT 3SM BKN005 OVC006 04/04 A3003 RMK AO1 SLP186
SPECI CYNL 170642Z AUTO 02012KT 2 1/2SM OVC005 04/04 A3004 RMK AO1 SLP186
SPECI CYNL 170640Z AUTO 02012KT 2 1/2SM BKN004 OVC006 04/04 A3004 RMK AO1 SLP186
SPECI CYNL 170639Z AUTO 02012KT 2 1/2SM FEW003 BKN005 OVC006 04/04 A3004 RMK AO1 SLP186
SPECI CYNL 170635Z AUTO 02009G16KT 2 1/2SM BKN004 BKN006 OVC011 04/04 A3004 RMK AO1 SLP186
SPECI CYNL 170633Z AUTO 02009G16KT 2 1/2SM BKN005 OVC009 04/04 A3004 RMK AO1 SLP186
SPECI CYNL 170625Z AUTO 02012G18KT 9SM OVC005 04/04 A3003 RMK AO1 SLP185
SPECI CYNL 170609Z AUTO 03009G16KT 6SM BKN004 OVC006 04/04 A3003 RMK AO1 SLP185
SPECI CYNL 170605Z AUTO 03012G18KT 9SM OVC005 04/04 A3003 RMK AO1 SLP184
METAR CYNL 170600Z AUTO 02012G18KT 7SM OVC004 04/04 A3003 RMK AO1 SLP184
SPECI CYNL 170553Z AUTO 03012KT 4SM BKN004 OVC006 04/04 A3003 RMK AO1 PRESRR SLP184
SPECI CYNL 170539Z AUTO 02010G16KT 3SM BKN005 OVC007 04/04 A3003 RMK AO1 PRESRR SLP184
SPECI CYNL 170536Z AUTO 01008G15KT 2 1/2SM OVC005 04/04 A3003 RMK AO1 PRESRR SLP184
METAR CYNL 170500Z AUTO 02008KT 9SM OVC005 04/04 A3003 RMK AO1 PRESRR SLP183
SPECI CYNL 170455Z AUTO 02010KT 3SM OVC005 04/04 A3003 RMK AO1 PRESRR SLP182
SPECI CYNL 170453Z AUTO 02006KT 2 1/2SM OVC005 04/04 A3003 RMK AO1 PRESRR SLP181
SPECI CYNL 170422Z AUTO 02010KT 3SM OVC005 05/04 A3001 RMK AO1 PRESRR SLP176
SPECI CYNL 170417Z AUTO 03009KT 2 1/2SM OVC005 05/05 A3001 RMK AO1 PRESRR SLP175
SPECI CYNL 170405Z AUTO 02009KT 3SM OVC005 05/05 A3000 RMK AO1 PRESRR SLP173
METAR CYNL 170400Z AUTO 02010G15KT 2SM OVC005 05/05 A3000 RMK AO1 PRESRR SLP173
SPECI CYNL 170356Z AUTO 03010G15KT 2SM OVC005 05/05 A3000 RMK AO1 PRESRR SLP172
SPECI CYNL 170354Z AUTO 03009G15KT 1 3/4SM OVC005 05/05 A3000 RMK AO1 PRESRR SLP172
SPECI CYNL 170352Z AUTO 03010G15KT 2 1/2SM OVC005 05/05 A3000 RMK AO1 PRESRR SLP171
SPECI CYNL 170347Z AUTO 02011KT 3SM OVC005 05/05 A2999 RMK AO1 PRESRR SLP169
SPECI CYNL 170344Z AUTO 03009KT 2 1/2SM OVC005 05/05 A2999 RMK AO1 PRESRR SLP169
SPECI CYNL 170342Z AUTO 03011KT 3SM OVC005 05/05 A2999 RMK AO1 PRESRR SLP169
SPECI CYNL 170340Z AUTO 03011KT 3SM OVC004 05/05 A2999 RMK AO1 PRESRR SLP168
SPECI CYNL 170333Z AUTO 02009G17KT 2SM OVC004 05/05 A2999 RMK AO1 PRESRR SLP167
SPECI CYNL 170332Z AUTO 02007G17KT 1 3/4SM OVC004 05/05 A2999 RMK AO1 PRESRR SLP167
SPECI CYNL 170316Z AUTO 02010G16KT 2SM BKN004 OVC005 05/05 A2998 RMK AO1 PRESRR SLP163
SPECI CYNL 170311Z AUTO 02009G17KT 1 1/2SM OVC004 05/05 A2998 RMK AO1 PRESRR SLP163
SPECI CYNL 170310Z AUTO 03012KT 1 1/4SM BKN004 OVC006 05/05 A2997 RMK AO1 PRESRR SLP163
SPECI CYNL 170307Z AUTO 02010G17KT 1 3/4SM OVC004 05/05 A2997 RMK AO1 PRESRR SLP162
SPECI CYNL 170306Z AUTO 02010G17KT 2SM OVC004 05/05 A2997 RMK AO1 PRESRR SLP162
SPECI CYNL 170304Z AUTO 01012KT 2SM OVC005 05/05 A2997 RMK AO1 PRESRR SLP161
SPECI CYNL 170302Z AUTO 01012G18KT 1 1/2SM OVC005 05/05 A2997 RMK AO1 PRESRR SLP161
METAR CYNL 170300Z AUTO 02011G18KT 2SM BKN005 OVC008 05/05 A2997 RMK AO1 PRESRR SLP160
SPECI CYNL 170257Z AUTO 01011G18KT 2 1/2SM BKN005 OVC008 05/05 A2997 RMK AO1 PRESRR SLP160
SPECI CYNL 170256Z AUTO 01011G18KT 3SM BKN005 OVC008 05/05 A2997 RMK AO1 PRESRR SLP160
SPECI CYNL 170245Z AUTO 01010G17KT 2 1/2SM OVC005 05/05 A2996 RMK AO1 PRESRR SLP158
SPECI CYNL 170234Z AUTO 02009G17KT 4SM OVC005 06/05 A2996 RMK AO1 PRESRR SLP156
SPECI CYNL 170230Z AUTO 02012G19KT 3SM OVC004 06/05 A2995 RMK AO1 PRESRR SLP155
SPECI CYNL 170222Z AUTO 02013G20KT 2 1/2SM OVC004 06/05 A2995 RMK AO1 PRESRR SLP154
SPECI CYNL 170207Z AUTO 01013G18KT 3SM OVC003 06/06 A2995 RMK AO1 PRESRR SLP153
METAR CYNL 170200Z AUTO 03012G18KT 2 1/2SM OVC004 06/06 A2995 RMK AO1 PRESRR SLP153
SPECI CYNL 170159Z AUTO 02012G18KT 2SM OVC004 06/06 A2995 RMK AO1 PRESRR SLP153
SPECI CYNL 170158Z AUTO 03011G18KT 1 3/4SM OVC004 06/06 A2995 RMK AO1 PRESRR SLP153
SPECI CYNL 170156Z AUTO 02009G18KT 2 1/2SM OVC004 06/06 A2995 RMK AO1 PRESRR SLP152
SPECI CYNL 170124Z AUTO 02012G18KT 4SM OVC004 06/06 A2993 RMK AO1 PRESRR SLP148
SPECI CYNL 170111Z AUTO 02008G16KT 3SM OVC005 07/06 A2993 RMK AO1 PRESRR SLP145
SPECI CYNL 170104Z AUTO 01012KT 2 1/2SM BKN005 OVC007 07/06 A2992 RMK AO1 PRESRR SLP143
METAR CYNL 170100Z AUTO 02011KT 7SM OVC005 07/06 A2992 RMK AO1 PRESRR SLP143
SPECI CYNL 170042Z AUTO 01012KT 4SM BKN005 OVC012 07/06 A2991 RMK AO1 PRESRR SLP139
SPECI CYNL 170027Z AUTO 02009G17KT 4SM OVC004 07/07 A2991 RMK AO1 PRESRR SLP137
SPECI CYNL 170024Z AUTO 01010G17KT 2 1/2SM OVC004 07/06 A2990 RMK AO1 PRESRR SLP137
SPECI CYNL 170021Z AUTO 01013G19KT 4SM BKN004 OVC006 06/06 A2990 RMK AO1 PRESRR SLP136
SPECI CYNL 170012Z AUTO 01013G20KT 9SM OVC005 07/06 A2989 RMK AO1 PRESRR SLP133
SPECI CYNL 170009Z AUTO 01013G20KT 3SM OVC004 06/06 A2989 RMK AO1 PRESRR SLP132
SPECI CYNL 170007Z AUTO 01014G20KT 2SM OVC004 06/06 A2989 RMK AO1 PRESRR SLP132
SPECI CYNL 170004Z AUTO 00013G19KT 1 3/4SM OVC005 07/06 A2989 RMK AO1 PRESRR SLP131
SPECI CYNL 170002Z AUTO 01011G19KT 2 1/2SM OVC005 07/06 A2989 RMK AO1 PRESRR SLP131
METAR CYNL 170000Z AUTO 01011G18KT 5SM OVC005 07/06 A2988 RMK AO1 PRESRR SLP130
SPECI CYNL 162342Z AUTO 00011G17KT 3SM BKN005 BKN007 OVC009 07/07 A2987 RMK AO1 PRESRR SLP127
SPECI CYNL 162341Z AUTO 00010G17KT 2 1/2SM BKN005 OVC007 07/07 A2987 RMK AO1 PRESRR SLP127
METAR CYNL 162300Z AUTO 00013G19KT 3SM OVC005 07/07 A2985 RMK AO1 PRESRR SLP118
SPECI CYNL 162259Z AUTO 00011G19KT 3SM OVC005 07/07 A2985 RMK AO1 PRESRR SLP118
SPECI CYNL 162254Z AUTO 01012G18KT 2 1/2SM BKN005 OVC006 07/07 A2985 RMK AO1 PRESRR SLP117
SPECI CYNL 162253Z AUTO 01010G19KT 3SM BKN005 OVC006 07/07 A2985 RMK AO1 PRESRR SLP116
SPECI CYNL 162236Z AUTO 02015KT 2SM OVC005 07/07 A2984 RMK AO1 PRESRR SLP113
SPECI CYNL 162232Z AUTO 02013G19KT 1 3/4SM OVC005 07/07 A2983 RMK AO1 PRESRR SLP113
SPECI CYNL 162231Z AUTO 01013G19KT 2SM OVC005 07/07 A2984 RMK AO1 PRESRR SLP113
SPECI CYNL 162225Z AUTO 00011G18KT 1 3/4SM OVC005 07/07 A2983 RMK AO1 PRESRR SLP113
SPECI CYNL 162220Z AUTO 00014G20KT 2 1/2SM OVC005 07/07 A2983 RMK AO1 PRESRR SLP112
SPECI CYNL 162216Z AUTO 00012G20KT 5SM OVC005 07/07 A2983 RMK AO1 PRESRR SLP111
METAR CYNL 162200Z AUTO 01012G19KT 3SM OVC004 08/08 A2982 RMK AO1 PRESRR SLP107
SPECI CYNL 162107Z AUTO 00010G16KT 2SM OVC004 08/08 A2978 RMK AO1 PRESRR SLP092
METAR CYNL 162100Z AUTO 01011G16KT 1 3/4SM OVC004 08/08 A2978 RMK AO1 PRESRR SLP090
SPECI CYNL 162049Z AUTO 03012G17KT 1 3/4SM OVC004 08/08 A2977 RMK AO1 PRESRR SLP088
SPECI CYNL 162035Z AUTO 03013KT 2SM OVC004 08/08 A2976 RMK AO1 PRESRR SLP087
SPECI CYNL 162021Z AUTO 02014G19KT 1 3/4SM OVC004 08/08 A2976 RMK AO1 PRESRR SLP084
SPECI CYNL 162020Z AUTO 02013KT 2SM OVC004 08/08 A2976 RMK AO1 PRESRR SLP083
SPECI CYNL 162015Z AUTO 02012G17KT 1 3/4SM OVC004 08/08 A2975 RMK AO1 PRESRR SLP082
SPECI CYNL 162009Z AUTO 03011G17KT 2 1/2SM OVC004 08/08 A2975 RMK AO1 PRESRR SLP081
METAR CYNL 162000Z AUTO 03011G17KT 3SM OVC004 08/08 A2975 RMK AO1 PRESRR SLP080
SPECI CYNL 161937Z AUTO 02011KT 3SM OVC004 09/09 A2973 RMK AO1 PRESRR SLP075
SPECI CYNL 161930Z AUTO 02009G17KT 2 1/2SM OVC004 09/09 A2973 RMK AO1 PRESRR SLP074
SPECI CYNL 161903Z AUTO 03013KT 2 1/2SM OVC005 09/09 A2972 RMK AO1 PRESRR SLP069
METAR CYNL 161900Z AUTO 03013G20KT 3SM OVC005 09/09 A2972 RMK AO1 PRESRR SLP069
SPECI CYNL 161859Z AUTO 03012G20KT 3SM OVC005 09/09 A2972 RMK AO1 PRESRR SLP069
SPECI CYNL 161855Z AUTO 03012G20KT 2SM OVC005 09/09 A2971 RMK AO1 PRESRR SLP068
SPECI CYNL 161851Z AUTO 03014G20KT 1 3/4SM OVC006 09/09 A2971 RMK AO1 PRESRR SLP068
SPECI CYNL 161849Z AUTO 04012G19KT 2 1/2SM OVC005 09/09 A2971 RMK AO1 PRESRR SLP068
SPECI CYNL 161835Z AUTO 04012G18KT 3SM OVC005 09/09 A2971 RMK AO1 PRESRR SLP066
SPECI CYNL 161834Z AUTO 03013G18KT 2 1/2SM OVC005 09/09 A2971 RMK AO1 PRESRR SLP066
SPECI CYNL 161833Z AUTO 03012G18KT 2SM OVC004 09/09 A2971 RMK AO1 PRESRR SLP066
SPECI CYNL 161829Z AUTO 03011G18KT 1 3/4SM OVC004 09/09 A2970 RMK AO1 PRESRR SLP066
SPECI CYNL 161825Z AUTO 03012G17KT 2SM OVC004 09/09 A2970 RMK AO1 PRESRR SLP065
SPECI CYNL 161823Z AUTO 04013KT 1 3/4SM OVC004 09/09 A2970 RMK AO1 PRESRR SLP065
SPECI CYNL 161816Z AUTO 04013KT 2SM OVC004 09/09 A2970 RMK AO1 PRESRR SLP064
SPECI CYNL 161807Z AUTO 04013KT 1 3/4SM OVC003 09/09 A2970 RMK AO1 PRESRR SLP063
METAR CYNL 161800Z AUTO 04011G17KT 2SM OVC003 08/08 A2969 RMK AO1 PRESRR SLP062
SPECI CYNL 161752Z AUTO 03014G19KT 2 1/2SM OVC003 08/08 A2969 RMK AO1 PRESRR SLP062
SPECI CYNL 161751Z AUTO 03013G19KT 2 1/2SM OVC002 08/08 A2969 RMK AO1 PRESRR SLP062
SPECI CYNL 161736Z AUTO 04011G16KT 3SM OVC002 09/09 A2968 RMK AO1 PRESRR SLP059
SPECI CYNL 161728Z AUTO 06010G22KT 2SM OVC002 08/08 A2968 RMK AO1 PRESRR SLP057
SPECI CYNL 161722Z AUTO 05014G22KT 1 3/4SM OVC002 08/08 A2968 RMK AO1 PRESRR SLP057
SPECI CYNL 161721Z AUTO 05012G22KT 2SM OVC002 09/09 A2968 RMK AO1 PRESRR SLP057
SPECI CYNL 161716Z AUTO 05013G22KT 1 1/2SM OVC002 09/09 A2967 RMK AO1 PRESRR SLP056
SPECI CYNL 161713Z AUTO 04013G18KT 1 1/4SM OVC002 09/09 A2967 RMK AO1 PRESRR SLP055
SPECI CYNL 161712Z AUTO 05012KT 1 1/2SM OVC002 09/09 A2967 RMK AO1 PRESRR SLP055
SPECI CYNL 161708Z AUTO 04013KT 1 3/4SM OVC003 09/09 A2967 RMK AO1 PRESRR SLP054
SPECI CYNL 161707Z AUTO 04011G17KT 2SM OVC003 09/09 A2967 RMK AO1 PRESRR SLP053
SPECI CYNL 161705Z AUTO 04010G17KT 1 3/4SM OVC003 09/09 A2967 RMK AO1 PRESRR SLP053
SPECI CYNL 161702Z AUTO 06010G17KT 2SM OVC003 09/09 A2967 RMK AO1 PRESRR SLP052
METAR CYNL 161700Z AUTO 06012KT 1 3/4SM OVC003 09/09 A2966 RMK AO1 PRESRR SLP051
SPECI CYNL 161656Z AUTO 05011G17KT 1 1/2SM OVC003 09/09 A2966 RMK AO1 SLP051
SPECI CYNL 161642Z AUTO 06011G17KT 1SM OVC003 10/10 A2965 RMK AO1 SLP047
SPECI CYNL 161641Z AUTO 06013KT 3/4SM OVC003 10/10 A2965 RMK AO1 SLP047
SPECI CYNL 161636Z AUTO 07012KT 1SM OVC003 10/10 A2965 RMK AO1 SLP047
SPECI CYNL 161626Z AUTO 06012G19KT 3/4SM OVC003 10/10 A2965 RMK AO1 SLP046
SPECI CYNL 161625Z AUTO 06012G19KT 1SM OVC003 10/10 A2965 RMK AO1 SLP046
SPECI CYNL 161623Z AUTO 06012G19KT 2 1/2SM OVC003 10/10 A2965 RMK AO1 SLP046
METAR CYNL 161600Z AUTO 07011G17KT 3SM OVC003 10/10 A2964 RMK AO1 SLP043
SPECI CYNL 161558Z AUTO 07011G17KT 2SM OVC003 10/10 A2964 RMK AO1 SLP043
SPECI CYNL 161556Z AUTO 06012KT 1 1/2SM OVC003 10/10 A2964 RMK AO1 SLP043
SPECI CYNL 161555Z AUTO 06012G17KT 1SM OVC003 10/10 A2964 RMK AO1 SLP042
SPECI CYNL 161553Z AUTO 08011G20KT 3/4SM OVC003 10/10 A2964 RMK AO1 SLP042
SPECI CYNL 161551Z AUTO 07013G20KT 1SM OVC003 10/10 A2964 RMK AO1 SLP042
SPECI CYNL 161550Z AUTO 07013G20KT 1 1/2SM OVC003 10/10 A2964 RMK AO1 SLP042
SPECI CYNL 161548Z AUTO 08012G20KT 2SM OVC003 10/10 A2964 RMK AO1 SLP041
SPECI CYNL 161547Z AUTO 08011G20KT 1 1/2SM OVC003 10/10 A2964 RMK AO1 SLP041
SPECI CYNL 161539Z AUTO 07013KT 1 1/4SM OVC003 10/10 A2963 RMK AO1 SLP041
SPECI CYNL 161532Z AUTO 07015KT 1 3/4SM OVC003 10/10 A2963 RMK AO1 SLP040
SPECI CYNL 161530Z AUTO 06013KT 2 1/2SM OVC003 10/10 A2963 RMK AO1 SLP040
SPECI CYNL 161506Z AUTO 07010G17KT 3SM OVC003 10/10 A2963 RMK AO1 SLP039
SPECI CYNL 161505Z AUTO 07011G17KT 2SM OVC003 10/10 A2963 RMK AO1 SLP039
METAR CYNL 161500Z AUTO 07009G17KT 1 3/4SM OVC003 10/10 A2963 RMK AO1 SLP038
SPECI CYNL 161459Z AUTO 07009G17KT 1 3/4SM OVC003 10/10 A2963 RMK AO1 SLP038
SPECI CYNL 161454Z AUTO 07010KT 2SM OVC003 09/09 A2962 RMK AO1 SLP038
SPECI CYNL 161452Z AUTO 07010G17KT 1 1/2SM OVC003 09/09 A2962 RMK AO1 SLP038
SPECI CYNL 161451Z AUTO 07011G17KT 1 1/4SM OVC003 09/09 A2962 RMK AO1 SLP038
SPECI CYNL 161450Z AUTO 07011G17KT 1 1/2SM OVC003 09/09 A2962 RMK AO1 SLP038
SPECI CYNL 161449Z AUTO 08011G17KT 2SM OVC003 09/09 A2962 RMK AO1 SLP037
SPECI CYNL 161448Z AUTO 08011G17KT 3SM OVC003 09/09 A2962 RMK AO1 SLP037
SPECI CYNL 161440Z AUTO 07009G16KT 3SM OVC002 09/09 A2962 RMK AO1 SLP037
SPECI CYNL 161436Z AUTO 07010G16KT 2SM OVC002 09/09 A2962 RMK AO1 SLP037
SPECI CYNL 161434Z AUTO 06012KT 1 1/2SM OVC002 09/09 A2962 RMK AO1 SLP036
SPECI CYNL 161429Z AUTO 07011KT 1SM OVC002 09/09 A2962 RMK AO1 SLP036
SPECI CYNL 161428Z AUTO 06011KT 3/4SM OVC002 09/09 A2962 RMK AO1 SLP036
SPECI CYNL 161415Z AUTO 07009G15KT 1 1/4SM OVC002 09/09 A2962 RMK AO1 SLP036
SPECI CYNL 161414Z AUTO 07009G15KT 2SM OVC002 09/09 A2962 RMK AO1 SLP036
SPECI CYNL 161413Z AUTO 07010G18KT 1 3/4SM OVC002 09/09 A2962 RMK AO1 SLP035
SPECI CYNL 161411Z AUTO 07011G18KT 1 1/2SM OVC003 09/09 A2962 RMK AO1 SLP035
SPECI CYNL 161410Z AUTO 07011G18KT 2SM OVC003 09/09 A2962 RMK AO1 SLP035
SPECI CYNL 161408Z AUTO 07010G19KT 1 1/2SM OVC003 09/09 A2961 RMK AO1 SLP035
SPECI CYNL 161406Z AUTO 07011G19KT 1 1/4SM OVC003 09/09 A2961 RMK AO1 SLP034
SPECI CYNL 161405Z AUTO 08011G19KT 1 1/4SM OVC002 09/09 A2961 RMK AO1 SLP034
SPECI CYNL 161402Z AUTO 07012G19KT 1 1/2SM OVC002 09/09 A2961 RMK AO1 SLP034
METAR CYNL 161400Z AUTO 08014KT 1SM OVC002 09/09 A2961 RMK AO1 SLP033
SPECI CYNL 161357Z AUTO 07012G18KT 1SM OVC002 09/09 A2961 RMK AO1 SLP032
SPECI CYNL 161356Z AUTO 07011G18KT 3/4SM OVC002 09/09 A2961 RMK AO1 SLP031
SPECI CYNL 161347Z AUTO 07012G18KT 1 1/4SM OVC002 09/09 A2960 RMK AO1 SLP029
SPECI CYNL 161343Z AUTO 08012G18KT 1 1/2SM OVC002 10/10 A2960 RMK AO1 SLP029
SPECI CYNL 161339Z AUTO 08010G19KT 1SM OVC002 09/09 A2960 RMK AO1 SLP028
SPECI CYNL 161338Z AUTO 08012G19KT 1 1/2SM OVC002 09/09 A2960 RMK AO1 SLP028
SPECI CYNL 161328Z AUTO 08014G20KT 9SM OVC002 09/09 A2960 RMK AO1 SLP028
METAR CYNL 161300Z AUTO 09013G20KT 6SM OVC003 10/10 A2959 RMK AO1 SLP026
SPECI CYNL 161220Z AUTO 09014G20KT 3SM OVC003 10/10 A2958 RMK AO1 SLP022
SPECI CYNL 161217Z AUTO 09013G18KT 2 1/2SM OVC004 10/10 A2958 RMK AO1 SLP022
SPECI CYNL 161210Z AUTO 08014G21KT 3SM OVC003 10/10 A2958 RMK AO1 SLP021
SPECI CYNL 161209Z AUTO 09015G21KT 2 1/2SM OVC003 10/10 A2958 RMK AO1 SLP021